﻿<?xml version="1.0" encoding="UTF-8" standalone="no" ?>
<gpx xmlns="http://www.topografix.com/GPX/1/1" creator="CompeGPS" version="1.1" xmlns:xsi="http://www.w3.org/2001/XMLSchema-instance" xsi:schemaLocation="http://www.topografix.com/GPX/1/1 http://www.topografix.com/GPX/1/1/gpx.xsd http://www.garmin.com/xmlschemas/GpxExtensions/v3 http://www.garmin.com/xmlschemas/GpxExtensionsv3.xsd http://www.garmin.com/xmlschemas/TrackPointExtension/v1 http://www.garmin.com/xmlschemas/TrackPointExtensionv1.xsd" xmlns:gpxtpx="http://www.garmin.com/xmlschemas/TrackPointExtension/v1">
  <metadata>
    <link href="http://www.compegps.com">
      <text>CompeGPS TEAM, SL</text>
    </link>
    <time>2013-04-29T19:39:42Z</time>
    <bounds maxlat="43.516866" maxlon="1.497713" minlat="43.477067" minlon="1.465140"/>
  </metadata>
<wpt lat="43.516851" lon="1.497274">
  <ele>170</ele>
  <name>Castanet-Tolosan</name>
</wpt>
<wpt lat="43.514772" lon="1.495337">
  <ele>170</ele>
  <name>Semenobren</name>
</wpt>
<wpt lat="43.508287" lon="1.494341">
  <ele>170</ele>
  <name>Bois de Savignol</name>
</wpt>
<wpt lat="43.502912" lon="1.485228">
  <ele>260</ele>
  <name>Pechmirol</name>
</wpt>
<wpt lat="43.490237" lon="1.479210">
  <ele>245</ele>
  <name>Gimel</name>
</wpt>
<wpt lat="43.477164" lon="1.491050">
  <ele>230</ele>
  <name>Montseignet</name>
</wpt>
<wpt lat="43.489029" lon="1.473686">
  <ele>230</ele>
  <name>Rebigue</name>
</wpt>
<wpt lat="43.498449" lon="1.465204">
  <ele>185</ele>
  <name>Campistron</name>
</wpt>
<wpt lat="43.504899" lon="1.474611">
  <ele>245</ele>
  <name>Ancienne Vigne</name>
</wpt>
  <trk>
    <name>Castanet-Tolosan</name>
    <trkseg>
      <trkpt lat="43.516851" lon="1.497274">
        <ele>172.7</ele>
        <time>2013-04-28T09:31:00Z</time>
        <name>Castanet-Tolosan</name>
      </trkpt>
      <trkpt lat="43.516638" lon="1.497035">
        <ele>173.1</ele>
        <time>2013-04-28T09:35:47Z</time>
      </trkpt>
      <trkpt lat="43.516512" lon="1.496959">
        <ele>173.7</ele>
        <time>2013-04-28T09:35:56Z</time>
      </trkpt>
      <trkpt lat="43.516403" lon="1.497031">
        <ele>173.7</ele>
        <time>2013-04-28T09:36:08Z</time>
      </trkpt>
      <trkpt lat="43.516317" lon="1.497106">
        <ele>172.2</ele>
        <time>2013-04-28T09:36:17Z</time>
      </trkpt>
      <trkpt lat="43.516223" lon="1.497162">
        <ele>171.2</ele>
        <time>2013-04-28T09:36:26Z</time>
      </trkpt>
      <trkpt lat="43.516112" lon="1.497227">
        <ele>170.3</ele>
        <time>2013-04-28T09:36:37Z</time>
      </trkpt>
      <trkpt lat="43.516003" lon="1.497232">
        <ele>169.8</ele>
        <time>2013-04-28T09:36:49Z</time>
      </trkpt>
      <trkpt lat="43.515909" lon="1.497296">
        <ele>167.4</ele>
        <time>2013-04-28T09:36:58Z</time>
      </trkpt>
      <trkpt lat="43.515790" lon="1.497334">
        <ele>169.3</ele>
        <time>2013-04-28T09:37:07Z</time>
      </trkpt>
      <trkpt lat="43.515698" lon="1.497404">
        <ele>169.8</ele>
        <time>2013-04-28T09:37:17Z</time>
      </trkpt>
      <trkpt lat="43.515590" lon="1.497463">
        <ele>169.8</ele>
        <time>2013-04-28T09:37:26Z</time>
      </trkpt>
      <trkpt lat="43.515492" lon="1.497520">
        <ele>169.3</ele>
        <time>2013-04-28T09:37:35Z</time>
      </trkpt>
      <trkpt lat="43.515400" lon="1.497581">
        <ele>168.9</ele>
        <time>2013-04-28T09:37:43Z</time>
      </trkpt>
      <trkpt lat="43.515231" lon="1.497713">
        <ele>169.3</ele>
        <time>2013-04-28T09:37:59Z</time>
      </trkpt>
      <trkpt lat="43.515076" lon="1.497659">
        <ele>168.9</ele>
        <time>2013-04-28T09:38:10Z</time>
      </trkpt>
      <trkpt lat="43.515051" lon="1.497495">
        <ele>168.4</ele>
        <time>2013-04-28T09:38:18Z</time>
      </trkpt>
      <trkpt lat="43.515036" lon="1.497335">
        <ele>168.4</ele>
        <time>2013-04-28T09:38:26Z</time>
      </trkpt>
      <trkpt lat="43.515031" lon="1.497200">
        <ele>168.4</ele>
        <time>2013-04-28T09:38:33Z</time>
      </trkpt>
      <trkpt lat="43.515025" lon="1.497045">
        <ele>169.3</ele>
        <time>2013-04-28T09:38:41Z</time>
      </trkpt>
      <trkpt lat="43.515043" lon="1.496918">
        <ele>169.3</ele>
        <time>2013-04-28T09:38:50Z</time>
      </trkpt>
      <trkpt lat="43.515052" lon="1.496740">
        <ele>169.8</ele>
        <time>2013-04-28T09:39:00Z</time>
      </trkpt>
      <trkpt lat="43.515017" lon="1.496532">
        <ele>169.3</ele>
        <time>2013-04-28T09:39:08Z</time>
      </trkpt>
      <trkpt lat="43.515007" lon="1.496377">
        <ele>169.3</ele>
        <time>2013-04-28T09:39:15Z</time>
      </trkpt>
      <trkpt lat="43.515026" lon="1.496236">
        <ele>170.3</ele>
        <time>2013-04-28T09:39:23Z</time>
      </trkpt>
      <trkpt lat="43.515004" lon="1.496073">
        <ele>170.3</ele>
        <time>2013-04-28T09:39:31Z</time>
      </trkpt>
      <trkpt lat="43.514961" lon="1.495899">
        <ele>171.2</ele>
        <time>2013-04-28T09:39:43Z</time>
      </trkpt>
      <trkpt lat="43.514861" lon="1.495709">
        <ele>170.8</ele>
        <time>2013-04-28T09:41:31Z</time>
      </trkpt>
      <trkpt lat="43.514822" lon="1.495599">
        <ele>169.8</ele>
        <time>2013-04-28T09:41:40Z</time>
      </trkpt>
      <trkpt lat="43.514804" lon="1.495465">
        <ele>170.3</ele>
        <time>2013-04-28T09:41:47Z</time>
      </trkpt>
      <trkpt lat="43.514772" lon="1.495337">
        <ele>171.2</ele>
        <time>2013-04-28T09:42:02Z</time>
        <name>Semenobren</name>
      </trkpt>
      <trkpt lat="43.514790" lon="1.495370">
        <ele>170.8</ele>
        <time>2013-04-28T09:42:31Z</time>
      </trkpt>
      <trkpt lat="43.514712" lon="1.495418">
        <ele>171.2</ele>
        <time>2013-04-28T09:42:40Z</time>
      </trkpt>
      <trkpt lat="43.514611" lon="1.495395">
        <ele>171.2</ele>
        <time>2013-04-28T09:42:48Z</time>
      </trkpt>
      <trkpt lat="43.514483" lon="1.495315">
        <ele>171.7</ele>
        <time>2013-04-28T09:42:56Z</time>
      </trkpt>
      <trkpt lat="43.514377" lon="1.495246">
        <ele>172.7</ele>
        <time>2013-04-28T09:43:05Z</time>
      </trkpt>
      <trkpt lat="43.514294" lon="1.495153">
        <ele>173.7</ele>
        <time>2013-04-28T09:43:13Z</time>
      </trkpt>
      <trkpt lat="43.514191" lon="1.495155">
        <ele>175.1</ele>
        <time>2013-04-28T09:43:22Z</time>
      </trkpt>
      <trkpt lat="43.514048" lon="1.495143">
        <ele>177.0</ele>
        <time>2013-04-28T09:43:36Z</time>
      </trkpt>
      <trkpt lat="43.513908" lon="1.495137">
        <ele>178.9</ele>
        <time>2013-04-28T09:43:47Z</time>
      </trkpt>
      <trkpt lat="43.513767" lon="1.495070">
        <ele>180.9</ele>
        <time>2013-04-28T09:43:58Z</time>
      </trkpt>
      <trkpt lat="43.513710" lon="1.494918">
        <ele>181.4</ele>
        <time>2013-04-28T09:44:08Z</time>
      </trkpt>
      <trkpt lat="43.513655" lon="1.494772">
        <ele>182.3</ele>
        <time>2013-04-28T09:44:16Z</time>
      </trkpt>
      <trkpt lat="43.513570" lon="1.494574">
        <ele>182.8</ele>
        <time>2013-04-28T09:44:25Z</time>
      </trkpt>
      <trkpt lat="43.513481" lon="1.494422">
        <ele>183.3</ele>
        <time>2013-04-28T09:44:34Z</time>
      </trkpt>
      <trkpt lat="43.513366" lon="1.494343">
        <ele>184.2</ele>
        <time>2013-04-28T09:44:43Z</time>
      </trkpt>
      <trkpt lat="43.513255" lon="1.494308">
        <ele>186.1</ele>
        <time>2013-04-28T09:44:53Z</time>
      </trkpt>
      <trkpt lat="43.513164" lon="1.494243">
        <ele>187.6</ele>
        <time>2013-04-28T09:45:07Z</time>
      </trkpt>
      <trkpt lat="43.513034" lon="1.494307">
        <ele>189.0</ele>
        <time>2013-04-28T09:45:23Z</time>
      </trkpt>
      <trkpt lat="43.512918" lon="1.494396">
        <ele>189.5</ele>
        <time>2013-04-28T09:45:32Z</time>
      </trkpt>
      <trkpt lat="43.512679" lon="1.494383">
        <ele>191.4</ele>
        <time>2013-04-28T09:45:42Z</time>
      </trkpt>
      <trkpt lat="43.512610" lon="1.494361">
        <ele>191.9</ele>
        <time>2013-04-28T09:45:56Z</time>
      </trkpt>
      <trkpt lat="43.512488" lon="1.494305">
        <ele>192.4</ele>
        <time>2013-04-28T09:46:05Z</time>
      </trkpt>
      <trkpt lat="43.512370" lon="1.494219">
        <ele>193.4</ele>
        <time>2013-04-28T09:46:14Z</time>
      </trkpt>
      <trkpt lat="43.512266" lon="1.494165">
        <ele>193.8</ele>
        <time>2013-04-28T09:46:22Z</time>
      </trkpt>
      <trkpt lat="43.512156" lon="1.494129">
        <ele>193.8</ele>
        <time>2013-04-28T09:46:29Z</time>
      </trkpt>
      <trkpt lat="43.512049" lon="1.494150">
        <ele>194.8</ele>
        <time>2013-04-28T09:46:37Z</time>
      </trkpt>
      <trkpt lat="43.511943" lon="1.494206">
        <ele>194.3</ele>
        <time>2013-04-28T09:46:45Z</time>
      </trkpt>
      <trkpt lat="43.511821" lon="1.494257">
        <ele>194.8</ele>
        <time>2013-04-28T09:46:54Z</time>
      </trkpt>
      <trkpt lat="43.511709" lon="1.494277">
        <ele>194.3</ele>
        <time>2013-04-28T09:47:02Z</time>
      </trkpt>
      <trkpt lat="43.511605" lon="1.494284">
        <ele>194.8</ele>
        <time>2013-04-28T09:47:09Z</time>
      </trkpt>
      <trkpt lat="43.511498" lon="1.494288">
        <ele>194.8</ele>
        <time>2013-04-28T09:47:16Z</time>
      </trkpt>
      <trkpt lat="43.511403" lon="1.494295">
        <ele>194.8</ele>
        <time>2013-04-28T09:47:23Z</time>
      </trkpt>
      <trkpt lat="43.511291" lon="1.494296">
        <ele>194.8</ele>
        <time>2013-04-28T09:47:30Z</time>
      </trkpt>
      <trkpt lat="43.511181" lon="1.494298">
        <ele>194.3</ele>
        <time>2013-04-28T09:47:38Z</time>
      </trkpt>
      <trkpt lat="43.511076" lon="1.494305">
        <ele>194.3</ele>
        <time>2013-04-28T09:47:45Z</time>
      </trkpt>
      <trkpt lat="43.510968" lon="1.494309">
        <ele>193.8</ele>
        <time>2013-04-28T09:47:52Z</time>
      </trkpt>
      <trkpt lat="43.510857" lon="1.494333">
        <ele>194.3</ele>
        <time>2013-04-28T09:48:00Z</time>
      </trkpt>
      <trkpt lat="43.510753" lon="1.494353">
        <ele>193.4</ele>
        <time>2013-04-28T09:48:07Z</time>
      </trkpt>
      <trkpt lat="43.510644" lon="1.494391">
        <ele>192.4</ele>
        <time>2013-04-28T09:48:14Z</time>
      </trkpt>
      <trkpt lat="43.510525" lon="1.494409">
        <ele>192.4</ele>
        <time>2013-04-28T09:48:22Z</time>
      </trkpt>
      <trkpt lat="43.510410" lon="1.494417">
        <ele>191.9</ele>
        <time>2013-04-28T09:48:29Z</time>
      </trkpt>
      <trkpt lat="43.510300" lon="1.494417">
        <ele>191.9</ele>
        <time>2013-04-28T09:48:37Z</time>
      </trkpt>
      <trkpt lat="43.510180" lon="1.494392">
        <ele>191.4</ele>
        <time>2013-04-28T09:48:46Z</time>
      </trkpt>
      <trkpt lat="43.510059" lon="1.494334">
        <ele>191.4</ele>
        <time>2013-04-28T09:48:55Z</time>
      </trkpt>
      <trkpt lat="43.509931" lon="1.494271">
        <ele>190.5</ele>
        <time>2013-04-28T09:49:04Z</time>
      </trkpt>
      <trkpt lat="43.509816" lon="1.494218">
        <ele>190.5</ele>
        <time>2013-04-28T09:49:12Z</time>
      </trkpt>
      <trkpt lat="43.509708" lon="1.494204">
        <ele>189.5</ele>
        <time>2013-04-28T09:49:19Z</time>
      </trkpt>
      <trkpt lat="43.509594" lon="1.494182">
        <ele>188.6</ele>
        <time>2013-04-28T09:49:27Z</time>
      </trkpt>
      <trkpt lat="43.509475" lon="1.494176">
        <ele>188.6</ele>
        <time>2013-04-28T09:49:34Z</time>
      </trkpt>
      <trkpt lat="43.509364" lon="1.494195">
        <ele>188.1</ele>
        <time>2013-04-28T09:49:42Z</time>
      </trkpt>
      <trkpt lat="43.509242" lon="1.494214">
        <ele>187.1</ele>
        <time>2013-04-28T09:49:51Z</time>
      </trkpt>
      <trkpt lat="43.509124" lon="1.494242">
        <ele>186.6</ele>
        <time>2013-04-28T09:49:59Z</time>
      </trkpt>
      <trkpt lat="43.509003" lon="1.494268">
        <ele>185.7</ele>
        <time>2013-04-28T09:50:08Z</time>
      </trkpt>
      <trkpt lat="43.508860" lon="1.494286">
        <ele>184.2</ele>
        <time>2013-04-28T09:50:21Z</time>
      </trkpt>
      <trkpt lat="43.508701" lon="1.494320">
        <ele>182.3</ele>
        <time>2013-04-28T09:50:33Z</time>
      </trkpt>
      <trkpt lat="43.508508" lon="1.494348">
        <ele>181.4</ele>
        <time>2013-04-28T09:50:46Z</time>
      </trkpt>
      <trkpt lat="43.508287" lon="1.494341">
        <ele>181.8</ele>
        <time>2013-04-28T09:51:03Z</time>
        <name>Bois de Savignol</name>
      </trkpt>
      <trkpt lat="43.508195" lon="1.494242">
        <ele>180.9</ele>
        <time>2013-04-28T09:51:38Z</time>
      </trkpt>
      <trkpt lat="43.508289" lon="1.494163">
        <ele>179.9</ele>
        <time>2013-04-28T09:51:55Z</time>
      </trkpt>
      <trkpt lat="43.508391" lon="1.494055">
        <ele>182.3</ele>
        <time>2013-04-28T09:52:07Z</time>
      </trkpt>
      <trkpt lat="43.508520" lon="1.493912">
        <ele>182.8</ele>
        <time>2013-04-28T09:52:21Z</time>
      </trkpt>
      <trkpt lat="43.508590" lon="1.493722">
        <ele>187.1</ele>
        <time>2013-04-28T09:52:45Z</time>
      </trkpt>
      <trkpt lat="43.508547" lon="1.493525">
        <ele>191.0</ele>
        <time>2013-04-28T09:53:08Z</time>
      </trkpt>
      <trkpt lat="43.508567" lon="1.493338">
        <ele>194.3</ele>
        <time>2013-04-28T09:53:26Z</time>
      </trkpt>
      <trkpt lat="43.508587" lon="1.493063">
        <ele>198.2</ele>
        <time>2013-04-28T09:53:54Z</time>
      </trkpt>
      <trkpt lat="43.508574" lon="1.492848">
        <ele>203.0</ele>
        <time>2013-04-28T09:54:11Z</time>
      </trkpt>
      <trkpt lat="43.508488" lon="1.492767">
        <ele>204.9</ele>
        <time>2013-04-28T09:54:26Z</time>
      </trkpt>
      <trkpt lat="43.508398" lon="1.492842">
        <ele>206.3</ele>
        <time>2013-04-28T09:54:39Z</time>
      </trkpt>
      <trkpt lat="43.508302" lon="1.492895">
        <ele>208.3</ele>
        <time>2013-04-28T09:54:48Z</time>
      </trkpt>
      <trkpt lat="43.508178" lon="1.492932">
        <ele>210.7</ele>
        <time>2013-04-28T09:54:58Z</time>
      </trkpt>
      <trkpt lat="43.508051" lon="1.492915">
        <ele>212.6</ele>
        <time>2013-04-28T09:55:08Z</time>
      </trkpt>
      <trkpt lat="43.507932" lon="1.492888">
        <ele>214.5</ele>
        <time>2013-04-28T09:55:18Z</time>
      </trkpt>
      <trkpt lat="43.507829" lon="1.492826">
        <ele>216.9</ele>
        <time>2013-04-28T09:55:28Z</time>
      </trkpt>
      <trkpt lat="43.507744" lon="1.492728">
        <ele>216.9</ele>
        <time>2013-04-28T09:55:37Z</time>
      </trkpt>
      <trkpt lat="43.507681" lon="1.492586">
        <ele>218.8</ele>
        <time>2013-04-28T09:56:01Z</time>
      </trkpt>
      <trkpt lat="43.507596" lon="1.492450">
        <ele>217.4</ele>
        <time>2013-04-28T09:56:21Z</time>
      </trkpt>
      <trkpt lat="43.507478" lon="1.492270">
        <ele>217.4</ele>
        <time>2013-04-28T09:56:45Z</time>
      </trkpt>
      <trkpt lat="43.507347" lon="1.492034">
        <ele>217.4</ele>
        <time>2013-04-28T09:57:24Z</time>
      </trkpt>
      <trkpt lat="43.507250" lon="1.491829">
        <ele>217.4</ele>
        <time>2013-04-28T09:57:40Z</time>
      </trkpt>
      <trkpt lat="43.507158" lon="1.491645">
        <ele>216.4</ele>
        <time>2013-04-28T09:57:55Z</time>
      </trkpt>
      <trkpt lat="43.507032" lon="1.491473">
        <ele>216.4</ele>
        <time>2013-04-28T09:58:12Z</time>
      </trkpt>
      <trkpt lat="43.506922" lon="1.491333">
        <ele>216.4</ele>
        <time>2013-04-28T09:58:23Z</time>
      </trkpt>
      <trkpt lat="43.506805" lon="1.491159">
        <ele>216.4</ele>
        <time>2013-04-28T09:58:37Z</time>
      </trkpt>
      <trkpt lat="43.506716" lon="1.490945">
        <ele>215.9</ele>
        <time>2013-04-28T09:58:54Z</time>
      </trkpt>
      <trkpt lat="43.506614" lon="1.490703">
        <ele>215.5</ele>
        <time>2013-04-28T09:59:08Z</time>
      </trkpt>
      <trkpt lat="43.506513" lon="1.490513">
        <ele>216.4</ele>
        <time>2013-04-28T09:59:20Z</time>
      </trkpt>
      <trkpt lat="43.506426" lon="1.490330">
        <ele>215.9</ele>
        <time>2013-04-28T09:59:35Z</time>
      </trkpt>
      <trkpt lat="43.506284" lon="1.490163">
        <ele>215.9</ele>
        <time>2013-04-28T09:59:49Z</time>
      </trkpt>
      <trkpt lat="43.506098" lon="1.489960">
        <ele>215.0</ele>
        <time>2013-04-28T10:00:03Z</time>
      </trkpt>
      <trkpt lat="43.505968" lon="1.489841">
        <ele>215.5</ele>
        <time>2013-04-28T10:00:13Z</time>
      </trkpt>
      <trkpt lat="43.505814" lon="1.489777">
        <ele>215.9</ele>
        <time>2013-04-28T10:00:25Z</time>
      </trkpt>
      <trkpt lat="43.505670" lon="1.489747">
        <ele>216.9</ele>
        <time>2013-04-28T10:00:39Z</time>
      </trkpt>
      <trkpt lat="43.505513" lon="1.489656">
        <ele>217.9</ele>
        <time>2013-04-28T10:00:50Z</time>
      </trkpt>
      <trkpt lat="43.505430" lon="1.489545">
        <ele>219.3</ele>
        <time>2013-04-28T10:01:01Z</time>
      </trkpt>
      <trkpt lat="43.505352" lon="1.489390">
        <ele>220.3</ele>
        <time>2013-04-28T10:01:14Z</time>
      </trkpt>
      <trkpt lat="43.505288" lon="1.489223">
        <ele>221.2</ele>
        <time>2013-04-28T10:01:26Z</time>
      </trkpt>
      <trkpt lat="43.505192" lon="1.489068">
        <ele>223.2</ele>
        <time>2013-04-28T10:01:40Z</time>
      </trkpt>
      <trkpt lat="43.505122" lon="1.488884">
        <ele>225.6</ele>
        <time>2013-04-28T10:02:00Z</time>
      </trkpt>
      <trkpt lat="43.505006" lon="1.488725">
        <ele>227.5</ele>
        <time>2013-04-28T10:02:16Z</time>
      </trkpt>
      <trkpt lat="43.504844" lon="1.488674">
        <ele>229.9</ele>
        <time>2013-04-28T10:02:34Z</time>
      </trkpt>
      <trkpt lat="43.504699" lon="1.488672">
        <ele>232.3</ele>
        <time>2013-04-28T10:02:50Z</time>
      </trkpt>
      <trkpt lat="43.504556" lon="1.488663">
        <ele>235.2</ele>
        <time>2013-04-28T10:03:07Z</time>
      </trkpt>
      <trkpt lat="43.504405" lon="1.488622">
        <ele>237.6</ele>
        <time>2013-04-28T10:03:22Z</time>
      </trkpt>
      <trkpt lat="43.504261" lon="1.488555">
        <ele>239.0</ele>
        <time>2013-04-28T10:03:36Z</time>
      </trkpt>
      <trkpt lat="43.504098" lon="1.488469">
        <ele>241.9</ele>
        <time>2013-04-28T10:03:55Z</time>
      </trkpt>
      <trkpt lat="43.503945" lon="1.488403">
        <ele>244.8</ele>
        <time>2013-04-28T10:04:12Z</time>
      </trkpt>
      <trkpt lat="43.503881" lon="1.488233">
        <ele>247.2</ele>
        <time>2013-04-28T10:04:29Z</time>
      </trkpt>
      <trkpt lat="43.503807" lon="1.488062">
        <ele>250.6</ele>
        <time>2013-04-28T10:04:49Z</time>
      </trkpt>
      <trkpt lat="43.503693" lon="1.487926">
        <ele>253.0</ele>
        <time>2013-04-28T10:05:05Z</time>
      </trkpt>
      <trkpt lat="43.503501" lon="1.487786">
        <ele>253.9</ele>
        <time>2013-04-28T10:05:49Z</time>
      </trkpt>
      <trkpt lat="43.503389" lon="1.487686">
        <ele>255.4</ele>
        <time>2013-04-28T10:06:06Z</time>
      </trkpt>
      <trkpt lat="43.503264" lon="1.487568">
        <ele>257.3</ele>
        <time>2013-04-28T10:06:21Z</time>
      </trkpt>
      <trkpt lat="43.503104" lon="1.487445">
        <ele>259.7</ele>
        <time>2013-04-28T10:06:37Z</time>
      </trkpt>
      <trkpt lat="43.502964" lon="1.487301">
        <ele>259.7</ele>
        <time>2013-04-28T10:06:50Z</time>
      </trkpt>
      <trkpt lat="43.502918" lon="1.487114">
        <ele>260.6</ele>
        <time>2013-04-28T10:07:03Z</time>
      </trkpt>
      <trkpt lat="43.502900" lon="1.486809">
        <ele>261.1</ele>
        <time>2013-04-28T10:07:22Z</time>
      </trkpt>
      <trkpt lat="43.502894" lon="1.486629">
        <ele>263.1</ele>
        <time>2013-04-28T10:07:37Z</time>
      </trkpt>
      <trkpt lat="43.502922" lon="1.486485">
        <ele>265.5</ele>
        <time>2013-04-28T10:07:49Z</time>
      </trkpt>
      <trkpt lat="43.502925" lon="1.486331">
        <ele>267.9</ele>
        <time>2013-04-28T10:08:00Z</time>
      </trkpt>
      <trkpt lat="43.502916" lon="1.486178">
        <ele>270.3</ele>
        <time>2013-04-28T10:08:10Z</time>
      </trkpt>
      <trkpt lat="43.502928" lon="1.486025">
        <ele>270.3</ele>
        <time>2013-04-28T10:08:20Z</time>
      </trkpt>
      <trkpt lat="43.502926" lon="1.485893">
        <ele>271.7</ele>
        <time>2013-04-28T10:08:28Z</time>
      </trkpt>
      <trkpt lat="43.502913" lon="1.485739">
        <ele>272.2</ele>
        <time>2013-04-28T10:08:38Z</time>
      </trkpt>
      <trkpt lat="43.502914" lon="1.485541">
        <ele>273.6</ele>
        <time>2013-04-28T10:08:50Z</time>
      </trkpt>
      <trkpt lat="43.502899" lon="1.485368">
        <ele>272.7</ele>
        <time>2013-04-28T10:09:01Z</time>
      </trkpt>
      <trkpt lat="43.502912" lon="1.485228">
        <ele>271.7</ele>
        <time>2013-04-28T10:09:28Z</time>
        <name>Pechmirol</name>
      </trkpt>
      <trkpt lat="43.502817" lon="1.485260">
        <ele>271.7</ele>
        <time>2013-04-28T10:09:45Z</time>
      </trkpt>
      <trkpt lat="43.502721" lon="1.485307">
        <ele>270.8</ele>
        <time>2013-04-28T10:09:55Z</time>
      </trkpt>
      <trkpt lat="43.502617" lon="1.485328">
        <ele>269.8</ele>
        <time>2013-04-28T10:10:05Z</time>
      </trkpt>
      <trkpt lat="43.502515" lon="1.485324">
        <ele>268.4</ele>
        <time>2013-04-28T10:10:14Z</time>
      </trkpt>
      <trkpt lat="43.502411" lon="1.485322">
        <ele>267.9</ele>
        <time>2013-04-28T10:10:22Z</time>
      </trkpt>
      <trkpt lat="43.502317" lon="1.485297">
        <ele>266.4</ele>
        <time>2013-04-28T10:10:30Z</time>
      </trkpt>
      <trkpt lat="43.502210" lon="1.485290">
        <ele>265.9</ele>
        <time>2013-04-28T10:10:39Z</time>
      </trkpt>
      <trkpt lat="43.502098" lon="1.485275">
        <ele>265.0</ele>
        <time>2013-04-28T10:10:48Z</time>
      </trkpt>
      <trkpt lat="43.501990" lon="1.485243">
        <ele>264.0</ele>
        <time>2013-04-28T10:10:56Z</time>
      </trkpt>
      <trkpt lat="43.501883" lon="1.485231">
        <ele>263.5</ele>
        <time>2013-04-28T10:11:05Z</time>
      </trkpt>
      <trkpt lat="43.501780" lon="1.485221">
        <ele>262.6</ele>
        <time>2013-04-28T10:11:13Z</time>
      </trkpt>
      <trkpt lat="43.501687" lon="1.485215">
        <ele>262.1</ele>
        <time>2013-04-28T10:11:21Z</time>
      </trkpt>
      <trkpt lat="43.501573" lon="1.485194">
        <ele>261.1</ele>
        <time>2013-04-28T10:11:30Z</time>
      </trkpt>
      <trkpt lat="43.501473" lon="1.485167">
        <ele>260.6</ele>
        <time>2013-04-28T10:11:38Z</time>
      </trkpt>
      <trkpt lat="43.501371" lon="1.485167">
        <ele>259.7</ele>
        <time>2013-04-28T10:11:46Z</time>
      </trkpt>
      <trkpt lat="43.501261" lon="1.485148">
        <ele>258.7</ele>
        <time>2013-04-28T10:11:54Z</time>
      </trkpt>
      <trkpt lat="43.501168" lon="1.485129">
        <ele>258.2</ele>
        <time>2013-04-28T10:12:02Z</time>
      </trkpt>
      <trkpt lat="43.501054" lon="1.485118">
        <ele>257.8</ele>
        <time>2013-04-28T10:12:11Z</time>
      </trkpt>
      <trkpt lat="43.500954" lon="1.485112">
        <ele>257.8</ele>
        <time>2013-04-28T10:12:20Z</time>
      </trkpt>
      <trkpt lat="43.500845" lon="1.485079">
        <ele>257.3</ele>
        <time>2013-04-28T10:12:29Z</time>
      </trkpt>
      <trkpt lat="43.500748" lon="1.485038">
        <ele>257.3</ele>
        <time>2013-04-28T10:12:37Z</time>
      </trkpt>
      <trkpt lat="43.500646" lon="1.484994">
        <ele>256.8</ele>
        <time>2013-04-28T10:12:45Z</time>
      </trkpt>
      <trkpt lat="43.500536" lon="1.484982">
        <ele>256.8</ele>
        <time>2013-04-28T10:12:53Z</time>
      </trkpt>
      <trkpt lat="43.500449" lon="1.485003">
        <ele>257.3</ele>
        <time>2013-04-28T10:13:15Z</time>
      </trkpt>
      <trkpt lat="43.500369" lon="1.485058">
        <ele>257.3</ele>
        <time>2013-04-28T10:13:22Z</time>
      </trkpt>
      <trkpt lat="43.500279" lon="1.485105">
        <ele>257.3</ele>
        <time>2013-04-28T10:13:29Z</time>
      </trkpt>
      <trkpt lat="43.500184" lon="1.485150">
        <ele>257.8</ele>
        <time>2013-04-28T10:13:37Z</time>
      </trkpt>
      <trkpt lat="43.500085" lon="1.485172">
        <ele>258.2</ele>
        <time>2013-04-28T10:13:45Z</time>
      </trkpt>
      <trkpt lat="43.499988" lon="1.485221">
        <ele>258.7</ele>
        <time>2013-04-28T10:13:53Z</time>
      </trkpt>
      <trkpt lat="43.499894" lon="1.485262">
        <ele>259.2</ele>
        <time>2013-04-28T10:14:01Z</time>
      </trkpt>
      <trkpt lat="43.499785" lon="1.485294">
        <ele>260.2</ele>
        <time>2013-04-28T10:14:10Z</time>
      </trkpt>
      <trkpt lat="43.499696" lon="1.485328">
        <ele>261.1</ele>
        <time>2013-04-28T10:14:19Z</time>
      </trkpt>
      <trkpt lat="43.499590" lon="1.485359">
        <ele>261.6</ele>
        <time>2013-04-28T10:14:27Z</time>
      </trkpt>
      <trkpt lat="43.499447" lon="1.485403">
        <ele>263.1</ele>
        <time>2013-04-28T10:14:39Z</time>
      </trkpt>
      <trkpt lat="43.499305" lon="1.485450">
        <ele>264.0</ele>
        <time>2013-04-28T10:14:51Z</time>
      </trkpt>
      <trkpt lat="43.499188" lon="1.485493">
        <ele>265.5</ele>
        <time>2013-04-28T10:15:01Z</time>
      </trkpt>
      <trkpt lat="43.499061" lon="1.485535">
        <ele>266.9</ele>
        <time>2013-04-28T10:15:11Z</time>
      </trkpt>
      <trkpt lat="43.498953" lon="1.485572">
        <ele>267.9</ele>
        <time>2013-04-28T10:15:21Z</time>
      </trkpt>
      <trkpt lat="43.498848" lon="1.485589">
        <ele>268.8</ele>
        <time>2013-04-28T10:15:30Z</time>
      </trkpt>
      <trkpt lat="43.498734" lon="1.485591">
        <ele>270.3</ele>
        <time>2013-04-28T10:15:39Z</time>
      </trkpt>
      <trkpt lat="43.498635" lon="1.485541">
        <ele>270.8</ele>
        <time>2013-04-28T10:15:48Z</time>
      </trkpt>
      <trkpt lat="43.498541" lon="1.485494">
        <ele>269.8</ele>
        <time>2013-04-28T10:15:57Z</time>
      </trkpt>
      <trkpt lat="43.498445" lon="1.485486">
        <ele>275.1</ele>
        <time>2013-04-28T10:16:06Z</time>
      </trkpt>
      <trkpt lat="43.498338" lon="1.485503">
        <ele>270.3</ele>
        <time>2013-04-28T10:16:16Z</time>
      </trkpt>
      <trkpt lat="43.498250" lon="1.485549">
        <ele>269.8</ele>
        <time>2013-04-28T10:16:28Z</time>
      </trkpt>
      <trkpt lat="43.498161" lon="1.485616">
        <ele>269.3</ele>
        <time>2013-04-28T10:16:36Z</time>
      </trkpt>
      <trkpt lat="43.498105" lon="1.485718">
        <ele>268.8</ele>
        <time>2013-04-28T10:16:47Z</time>
      </trkpt>
      <trkpt lat="43.498003" lon="1.485822">
        <ele>267.9</ele>
        <time>2013-04-28T10:16:59Z</time>
      </trkpt>
      <trkpt lat="43.497918" lon="1.485890">
        <ele>267.4</ele>
        <time>2013-04-28T10:17:07Z</time>
      </trkpt>
      <trkpt lat="43.497838" lon="1.485963">
        <ele>265.9</ele>
        <time>2013-04-28T10:17:16Z</time>
      </trkpt>
      <trkpt lat="43.497722" lon="1.485983">
        <ele>265.0</ele>
        <time>2013-04-28T10:17:27Z</time>
      </trkpt>
      <trkpt lat="43.497613" lon="1.485958">
        <ele>262.6</ele>
        <time>2013-04-28T10:17:38Z</time>
      </trkpt>
      <trkpt lat="43.497496" lon="1.485935">
        <ele>261.1</ele>
        <time>2013-04-28T10:17:50Z</time>
      </trkpt>
      <trkpt lat="43.497363" lon="1.485911">
        <ele>257.8</ele>
        <time>2013-04-28T10:18:03Z</time>
      </trkpt>
      <trkpt lat="43.497258" lon="1.485910">
        <ele>255.4</ele>
        <time>2013-04-28T10:18:26Z</time>
      </trkpt>
      <trkpt lat="43.497148" lon="1.485893">
        <ele>253.9</ele>
        <time>2013-04-28T10:18:35Z</time>
      </trkpt>
      <trkpt lat="43.497050" lon="1.485866">
        <ele>252.0</ele>
        <time>2013-04-28T10:18:44Z</time>
      </trkpt>
      <trkpt lat="43.496950" lon="1.485857">
        <ele>250.6</ele>
        <time>2013-04-28T10:18:52Z</time>
      </trkpt>
      <trkpt lat="43.496850" lon="1.485848">
        <ele>248.6</ele>
        <time>2013-04-28T10:18:59Z</time>
      </trkpt>
      <trkpt lat="43.496743" lon="1.485833">
        <ele>247.2</ele>
        <time>2013-04-28T10:19:06Z</time>
      </trkpt>
      <trkpt lat="43.496646" lon="1.485792">
        <ele>245.3</ele>
        <time>2013-04-28T10:19:13Z</time>
      </trkpt>
      <trkpt lat="43.496535" lon="1.485750">
        <ele>243.8</ele>
        <time>2013-04-28T10:19:26Z</time>
      </trkpt>
      <trkpt lat="43.496411" lon="1.485733">
        <ele>242.4</ele>
        <time>2013-04-28T10:19:39Z</time>
      </trkpt>
      <trkpt lat="43.496275" lon="1.485597">
        <ele>243.4</ele>
        <time>2013-04-28T10:19:50Z</time>
      </trkpt>
      <trkpt lat="43.496107" lon="1.485481">
        <ele>245.8</ele>
        <time>2013-04-28T10:20:09Z</time>
      </trkpt>
      <trkpt lat="43.495980" lon="1.485381">
        <ele>247.2</ele>
        <time>2013-04-28T10:20:24Z</time>
      </trkpt>
      <trkpt lat="43.495823" lon="1.485279">
        <ele>249.1</ele>
        <time>2013-04-28T10:20:39Z</time>
      </trkpt>
      <trkpt lat="43.495648" lon="1.485179">
        <ele>251.0</ele>
        <time>2013-04-28T10:21:02Z</time>
      </trkpt>
      <trkpt lat="43.495497" lon="1.485065">
        <ele>252.0</ele>
        <time>2013-04-28T10:21:19Z</time>
      </trkpt>
      <trkpt lat="43.495395" lon="1.484981">
        <ele>252.5</ele>
        <time>2013-04-28T10:21:32Z</time>
      </trkpt>
      <trkpt lat="43.495274" lon="1.484912">
        <ele>252.5</ele>
        <time>2013-04-28T10:21:46Z</time>
      </trkpt>
      <trkpt lat="43.495115" lon="1.484870">
        <ele>252.5</ele>
        <time>2013-04-28T10:22:31Z</time>
      </trkpt>
      <trkpt lat="43.495032" lon="1.484808">
        <ele>253.0</ele>
        <time>2013-04-28T10:22:41Z</time>
      </trkpt>
      <trkpt lat="43.494947" lon="1.484747">
        <ele>253.0</ele>
        <time>2013-04-28T10:22:49Z</time>
      </trkpt>
      <trkpt lat="43.494867" lon="1.484675">
        <ele>253.4</ele>
        <time>2013-04-28T10:22:58Z</time>
      </trkpt>
      <trkpt lat="43.494773" lon="1.484610">
        <ele>253.4</ele>
        <time>2013-04-28T10:23:07Z</time>
      </trkpt>
      <trkpt lat="43.494691" lon="1.484547">
        <ele>253.0</ele>
        <time>2013-04-28T10:23:16Z</time>
      </trkpt>
      <trkpt lat="43.494606" lon="1.484494">
        <ele>253.0</ele>
        <time>2013-04-28T10:23:26Z</time>
      </trkpt>
      <trkpt lat="43.494525" lon="1.484425">
        <ele>252.5</ele>
        <time>2013-04-28T10:23:35Z</time>
      </trkpt>
      <trkpt lat="43.494440" lon="1.484371">
        <ele>253.0</ele>
        <time>2013-04-28T10:23:44Z</time>
      </trkpt>
      <trkpt lat="43.494351" lon="1.484302">
        <ele>249.6</ele>
        <time>2013-04-28T10:23:54Z</time>
      </trkpt>
      <trkpt lat="43.494255" lon="1.484232">
        <ele>248.2</ele>
        <time>2013-04-28T10:24:02Z</time>
      </trkpt>
      <trkpt lat="43.494170" lon="1.484166">
        <ele>246.2</ele>
        <time>2013-04-28T10:24:11Z</time>
      </trkpt>
      <trkpt lat="43.494090" lon="1.484099">
        <ele>244.3</ele>
        <time>2013-04-28T10:24:19Z</time>
      </trkpt>
      <trkpt lat="43.494016" lon="1.484034">
        <ele>242.9</ele>
        <time>2013-04-28T10:24:27Z</time>
      </trkpt>
      <trkpt lat="43.493936" lon="1.483969">
        <ele>241.4</ele>
        <time>2013-04-28T10:24:36Z</time>
      </trkpt>
      <trkpt lat="43.493842" lon="1.483889">
        <ele>238.5</ele>
        <time>2013-04-28T10:24:45Z</time>
      </trkpt>
      <trkpt lat="43.493759" lon="1.483825">
        <ele>237.6</ele>
        <time>2013-04-28T10:24:53Z</time>
      </trkpt>
      <trkpt lat="43.493686" lon="1.483756">
        <ele>235.7</ele>
        <time>2013-04-28T10:25:01Z</time>
      </trkpt>
      <trkpt lat="43.493604" lon="1.483685">
        <ele>233.7</ele>
        <time>2013-04-28T10:25:09Z</time>
      </trkpt>
      <trkpt lat="43.493523" lon="1.483615">
        <ele>231.3</ele>
        <time>2013-04-28T10:25:17Z</time>
      </trkpt>
      <trkpt lat="43.493434" lon="1.483533">
        <ele>229.4</ele>
        <time>2013-04-28T10:25:26Z</time>
      </trkpt>
      <trkpt lat="43.493352" lon="1.483450">
        <ele>228.0</ele>
        <time>2013-04-28T10:25:34Z</time>
      </trkpt>
      <trkpt lat="43.493258" lon="1.483380">
        <ele>226.1</ele>
        <time>2013-04-28T10:25:42Z</time>
      </trkpt>
      <trkpt lat="43.493169" lon="1.483291">
        <ele>223.6</ele>
        <time>2013-04-28T10:25:51Z</time>
      </trkpt>
      <trkpt lat="43.493081" lon="1.483213">
        <ele>221.7</ele>
        <time>2013-04-28T10:26:00Z</time>
      </trkpt>
      <trkpt lat="43.492992" lon="1.483124">
        <ele>219.3</ele>
        <time>2013-04-28T10:26:09Z</time>
      </trkpt>
      <trkpt lat="43.492895" lon="1.483040">
        <ele>216.9</ele>
        <time>2013-04-28T10:26:17Z</time>
      </trkpt>
      <trkpt lat="43.492840" lon="1.482908">
        <ele>216.4</ele>
        <time>2013-04-28T10:26:26Z</time>
      </trkpt>
      <trkpt lat="43.492897" lon="1.482747">
        <ele>215.9</ele>
        <time>2013-04-28T10:26:36Z</time>
      </trkpt>
      <trkpt lat="43.492980" lon="1.482632">
        <ele>215.5</ele>
        <time>2013-04-28T10:26:46Z</time>
      </trkpt>
      <trkpt lat="43.493059" lon="1.482527">
        <ele>215.5</ele>
        <time>2013-04-28T10:26:55Z</time>
      </trkpt>
      <trkpt lat="43.493133" lon="1.482412">
        <ele>215.5</ele>
        <time>2013-04-28T10:27:04Z</time>
      </trkpt>
      <trkpt lat="43.493199" lon="1.482298">
        <ele>215.9</ele>
        <time>2013-04-28T10:27:13Z</time>
      </trkpt>
      <trkpt lat="43.493270" lon="1.482144">
        <ele>215.5</ele>
        <time>2013-04-28T10:27:23Z</time>
      </trkpt>
      <trkpt lat="43.493298" lon="1.481936">
        <ele>215.0</ele>
        <time>2013-04-28T10:27:33Z</time>
      </trkpt>
      <trkpt lat="43.493213" lon="1.481872">
        <ele>213.6</ele>
        <time>2013-04-28T10:27:44Z</time>
      </trkpt>
      <trkpt lat="43.493128" lon="1.481732">
        <ele>215.5</ele>
        <time>2013-04-28T10:27:56Z</time>
      </trkpt>
      <trkpt lat="43.493018" lon="1.481618">
        <ele>217.4</ele>
        <time>2013-04-28T10:28:07Z</time>
      </trkpt>
      <trkpt lat="43.492876" lon="1.481496">
        <ele>219.3</ele>
        <time>2013-04-28T10:28:19Z</time>
      </trkpt>
      <trkpt lat="43.492757" lon="1.481375">
        <ele>222.2</ele>
        <time>2013-04-28T10:28:32Z</time>
      </trkpt>
      <trkpt lat="43.492620" lon="1.481251">
        <ele>224.6</ele>
        <time>2013-04-28T10:28:50Z</time>
      </trkpt>
      <trkpt lat="43.492516" lon="1.481172">
        <ele>226.1</ele>
        <time>2013-04-28T10:29:00Z</time>
      </trkpt>
      <trkpt lat="43.492408" lon="1.481085">
        <ele>227.5</ele>
        <time>2013-04-28T10:29:09Z</time>
      </trkpt>
      <trkpt lat="43.492317" lon="1.480997">
        <ele>228.4</ele>
        <time>2013-04-28T10:29:17Z</time>
      </trkpt>
      <trkpt lat="43.492247" lon="1.480903">
        <ele>229.9</ele>
        <time>2013-04-28T10:29:24Z</time>
      </trkpt>
      <trkpt lat="43.492173" lon="1.480812">
        <ele>230.9</ele>
        <time>2013-04-28T10:29:33Z</time>
      </trkpt>
      <trkpt lat="43.492095" lon="1.480712">
        <ele>232.3</ele>
        <time>2013-04-28T10:29:41Z</time>
      </trkpt>
      <trkpt lat="43.492032" lon="1.480615">
        <ele>232.8</ele>
        <time>2013-04-28T10:29:48Z</time>
      </trkpt>
      <trkpt lat="43.491980" lon="1.480501">
        <ele>234.2</ele>
        <time>2013-04-28T10:29:56Z</time>
      </trkpt>
      <trkpt lat="43.491905" lon="1.480395">
        <ele>235.2</ele>
        <time>2013-04-28T10:30:05Z</time>
      </trkpt>
      <trkpt lat="43.491829" lon="1.480291">
        <ele>236.6</ele>
        <time>2013-04-28T10:30:14Z</time>
      </trkpt>
      <trkpt lat="43.491769" lon="1.480217">
        <ele>238.1</ele>
        <time>2013-04-28T10:30:33Z</time>
      </trkpt>
      <trkpt lat="43.491688" lon="1.480109">
        <ele>239.5</ele>
        <time>2013-04-28T10:30:42Z</time>
      </trkpt>
      <trkpt lat="43.491604" lon="1.479998">
        <ele>241.9</ele>
        <time>2013-04-28T10:30:52Z</time>
      </trkpt>
      <trkpt lat="43.491513" lon="1.479885">
        <ele>243.8</ele>
        <time>2013-04-28T10:31:03Z</time>
      </trkpt>
      <trkpt lat="43.491408" lon="1.479804">
        <ele>245.8</ele>
        <time>2013-04-28T10:31:15Z</time>
      </trkpt>
      <trkpt lat="43.491300" lon="1.479730">
        <ele>247.7</ele>
        <time>2013-04-28T10:31:26Z</time>
      </trkpt>
      <trkpt lat="43.491201" lon="1.479674">
        <ele>249.1</ele>
        <time>2013-04-28T10:31:36Z</time>
      </trkpt>
      <trkpt lat="43.491103" lon="1.479615">
        <ele>251.0</ele>
        <time>2013-04-28T10:31:45Z</time>
      </trkpt>
      <trkpt lat="43.490971" lon="1.479567">
        <ele>253.0</ele>
        <time>2013-04-28T10:31:57Z</time>
      </trkpt>
      <trkpt lat="43.490852" lon="1.479516">
        <ele>255.9</ele>
        <time>2013-04-28T10:32:10Z</time>
      </trkpt>
      <trkpt lat="43.490730" lon="1.479470">
        <ele>259.2</ele>
        <time>2013-04-28T10:32:22Z</time>
      </trkpt>
      <trkpt lat="43.490624" lon="1.479420">
        <ele>261.1</ele>
        <time>2013-04-28T10:32:34Z</time>
      </trkpt>
      <trkpt lat="43.490500" lon="1.479376">
        <ele>264.0</ele>
        <time>2013-04-28T10:32:51Z</time>
      </trkpt>
      <trkpt lat="43.490359" lon="1.479306">
        <ele>267.4</ele>
        <time>2013-04-28T10:33:06Z</time>
      </trkpt>
      <trkpt lat="43.490237" lon="1.479210">
        <ele>269.3</ele>
        <time>2013-04-28T10:33:18Z</time>
        <name>Gimel</name>
      </trkpt>
      <trkpt lat="43.490160" lon="1.479203">
        <ele>268.8</ele>
        <time>2013-04-28T10:34:24Z</time>
      </trkpt>
      <trkpt lat="43.490160" lon="1.479233">
        <ele>270.8</ele>
        <time>2013-04-28T10:37:27Z</time>
      </trkpt>
      <trkpt lat="43.490068" lon="1.479281">
        <ele>270.8</ele>
        <time>2013-04-28T10:37:52Z</time>
      </trkpt>
      <trkpt lat="43.489966" lon="1.479325">
        <ele>271.2</ele>
        <time>2013-04-28T10:38:03Z</time>
      </trkpt>
      <trkpt lat="43.489977" lon="1.479199">
        <ele>273.1</ele>
        <time>2013-04-28T10:38:14Z</time>
      </trkpt>
      <trkpt lat="43.490030" lon="1.479167">
        <ele>274.6</ele>
        <time>2013-04-28T10:39:22Z</time>
      </trkpt>
      <trkpt lat="43.489950" lon="1.479282">
        <ele>272.7</ele>
        <time>2013-04-28T10:39:39Z</time>
      </trkpt>
      <trkpt lat="43.489891" lon="1.479386">
        <ele>271.7</ele>
        <time>2013-04-28T10:39:48Z</time>
      </trkpt>
      <trkpt lat="43.489810" lon="1.479483">
        <ele>271.7</ele>
        <time>2013-04-28T10:39:57Z</time>
      </trkpt>
      <trkpt lat="43.489731" lon="1.479593">
        <ele>272.2</ele>
        <time>2013-04-28T10:40:06Z</time>
      </trkpt>
      <trkpt lat="43.489661" lon="1.479743">
        <ele>272.2</ele>
        <time>2013-04-28T10:40:16Z</time>
      </trkpt>
      <trkpt lat="43.489581" lon="1.479903">
        <ele>271.7</ele>
        <time>2013-04-28T10:40:49Z</time>
      </trkpt>
      <trkpt lat="43.489530" lon="1.480043">
        <ele>272.2</ele>
        <time>2013-04-28T10:40:59Z</time>
      </trkpt>
      <trkpt lat="43.489479" lon="1.480196">
        <ele>272.7</ele>
        <time>2013-04-28T10:41:09Z</time>
      </trkpt>
      <trkpt lat="43.489426" lon="1.480338">
        <ele>272.7</ele>
        <time>2013-04-28T10:41:18Z</time>
      </trkpt>
      <trkpt lat="43.489379" lon="1.480500">
        <ele>272.7</ele>
        <time>2013-04-28T10:41:30Z</time>
      </trkpt>
      <trkpt lat="43.489330" lon="1.480650">
        <ele>273.1</ele>
        <time>2013-04-28T10:41:40Z</time>
      </trkpt>
      <trkpt lat="43.489293" lon="1.480800">
        <ele>273.1</ele>
        <time>2013-04-28T10:41:50Z</time>
      </trkpt>
      <trkpt lat="43.489237" lon="1.480937">
        <ele>273.1</ele>
        <time>2013-04-28T10:41:59Z</time>
      </trkpt>
      <trkpt lat="43.489161" lon="1.481085">
        <ele>273.1</ele>
        <time>2013-04-28T10:42:08Z</time>
      </trkpt>
      <trkpt lat="43.489081" lon="1.481187">
        <ele>273.6</ele>
        <time>2013-04-28T10:42:16Z</time>
      </trkpt>
      <trkpt lat="43.488986" lon="1.481274">
        <ele>273.1</ele>
        <time>2013-04-28T10:42:24Z</time>
      </trkpt>
      <trkpt lat="43.488908" lon="1.481364">
        <ele>273.6</ele>
        <time>2013-04-28T10:42:33Z</time>
      </trkpt>
      <trkpt lat="43.488817" lon="1.481459">
        <ele>273.6</ele>
        <time>2013-04-28T10:42:43Z</time>
      </trkpt>
      <trkpt lat="43.488727" lon="1.481583">
        <ele>273.6</ele>
        <time>2013-04-28T10:42:52Z</time>
      </trkpt>
      <trkpt lat="43.488639" lon="1.481693">
        <ele>273.6</ele>
        <time>2013-04-28T10:43:00Z</time>
      </trkpt>
      <trkpt lat="43.488552" lon="1.481780">
        <ele>274.1</ele>
        <time>2013-04-28T10:43:08Z</time>
      </trkpt>
      <trkpt lat="43.488458" lon="1.481869">
        <ele>274.1</ele>
        <time>2013-04-28T10:43:17Z</time>
      </trkpt>
      <trkpt lat="43.488377" lon="1.481994">
        <ele>274.1</ele>
        <time>2013-04-28T10:43:26Z</time>
      </trkpt>
      <trkpt lat="43.488323" lon="1.482125">
        <ele>274.6</ele>
        <time>2013-04-28T10:43:35Z</time>
      </trkpt>
      <trkpt lat="43.488270" lon="1.482273">
        <ele>274.6</ele>
        <time>2013-04-28T10:43:44Z</time>
      </trkpt>
      <trkpt lat="43.488205" lon="1.482427">
        <ele>274.6</ele>
        <time>2013-04-28T10:43:54Z</time>
      </trkpt>
      <trkpt lat="43.488167" lon="1.482595">
        <ele>274.6</ele>
        <time>2013-04-28T10:44:04Z</time>
      </trkpt>
      <trkpt lat="43.488103" lon="1.482750">
        <ele>274.6</ele>
        <time>2013-04-28T10:44:16Z</time>
      </trkpt>
      <trkpt lat="43.488042" lon="1.482925">
        <ele>275.1</ele>
        <time>2013-04-28T10:44:26Z</time>
      </trkpt>
      <trkpt lat="43.487982" lon="1.483089">
        <ele>275.1</ele>
        <time>2013-04-28T10:44:35Z</time>
      </trkpt>
      <trkpt lat="43.487932" lon="1.483229">
        <ele>275.6</ele>
        <time>2013-04-28T10:44:45Z</time>
      </trkpt>
      <trkpt lat="43.487885" lon="1.483368">
        <ele>275.6</ele>
        <time>2013-04-28T10:44:55Z</time>
      </trkpt>
      <trkpt lat="43.487839" lon="1.483506">
        <ele>275.6</ele>
        <time>2013-04-28T10:45:04Z</time>
      </trkpt>
      <trkpt lat="43.487785" lon="1.483671">
        <ele>275.6</ele>
        <time>2013-04-28T10:45:13Z</time>
      </trkpt>
      <trkpt lat="43.487735" lon="1.483823">
        <ele>276.0</ele>
        <time>2013-04-28T10:45:22Z</time>
      </trkpt>
      <trkpt lat="43.487679" lon="1.483975">
        <ele>275.6</ele>
        <time>2013-04-28T10:45:31Z</time>
      </trkpt>
      <trkpt lat="43.487634" lon="1.484147">
        <ele>275.1</ele>
        <time>2013-04-28T10:45:42Z</time>
      </trkpt>
      <trkpt lat="43.487583" lon="1.484288">
        <ele>275.1</ele>
        <time>2013-04-28T10:45:53Z</time>
      </trkpt>
      <trkpt lat="43.487514" lon="1.484431">
        <ele>275.1</ele>
        <time>2013-04-28T10:46:05Z</time>
      </trkpt>
      <trkpt lat="43.487449" lon="1.484565">
        <ele>274.1</ele>
        <time>2013-04-28T10:46:16Z</time>
      </trkpt>
      <trkpt lat="43.487363" lon="1.484695">
        <ele>273.1</ele>
        <time>2013-04-28T10:46:26Z</time>
      </trkpt>
      <trkpt lat="43.487288" lon="1.484818">
        <ele>271.7</ele>
        <time>2013-04-28T10:46:36Z</time>
      </trkpt>
      <trkpt lat="43.487221" lon="1.484966">
        <ele>270.3</ele>
        <time>2013-04-28T10:46:46Z</time>
      </trkpt>
      <trkpt lat="43.487138" lon="1.485063">
        <ele>269.3</ele>
        <time>2013-04-28T10:46:55Z</time>
      </trkpt>
      <trkpt lat="43.487039" lon="1.485176">
        <ele>267.4</ele>
        <time>2013-04-28T10:47:07Z</time>
      </trkpt>
      <trkpt lat="43.486934" lon="1.485280">
        <ele>266.4</ele>
        <time>2013-04-28T10:47:17Z</time>
      </trkpt>
      <trkpt lat="43.486881" lon="1.485170">
        <ele>265.9</ele>
        <time>2013-04-28T10:47:27Z</time>
      </trkpt>
      <trkpt lat="43.486837" lon="1.485038">
        <ele>265.9</ele>
        <time>2013-04-28T10:47:36Z</time>
      </trkpt>
      <trkpt lat="43.486798" lon="1.484916">
        <ele>265.0</ele>
        <time>2013-04-28T10:47:43Z</time>
      </trkpt>
      <trkpt lat="43.486763" lon="1.484769">
        <ele>264.5</ele>
        <time>2013-04-28T10:47:51Z</time>
      </trkpt>
      <trkpt lat="43.486740" lon="1.484632">
        <ele>264.5</ele>
        <time>2013-04-28T10:47:59Z</time>
      </trkpt>
      <trkpt lat="43.486719" lon="1.484477">
        <ele>263.1</ele>
        <time>2013-04-28T10:48:07Z</time>
      </trkpt>
      <trkpt lat="43.486703" lon="1.484337">
        <ele>262.6</ele>
        <time>2013-04-28T10:48:14Z</time>
      </trkpt>
      <trkpt lat="43.486699" lon="1.484194">
        <ele>262.6</ele>
        <time>2013-04-28T10:48:21Z</time>
      </trkpt>
      <trkpt lat="43.486693" lon="1.484049">
        <ele>262.6</ele>
        <time>2013-04-28T10:48:29Z</time>
      </trkpt>
      <trkpt lat="43.486713" lon="1.483915">
        <ele>262.6</ele>
        <time>2013-04-28T10:48:40Z</time>
      </trkpt>
      <trkpt lat="43.486703" lon="1.483758">
        <ele>262.6</ele>
        <time>2013-04-28T10:48:50Z</time>
      </trkpt>
      <trkpt lat="43.486715" lon="1.483578">
        <ele>262.1</ele>
        <time>2013-04-28T10:49:00Z</time>
      </trkpt>
      <trkpt lat="43.486738" lon="1.483425">
        <ele>262.1</ele>
        <time>2013-04-28T10:49:09Z</time>
      </trkpt>
      <trkpt lat="43.486695" lon="1.483342">
        <ele>261.6</ele>
        <time>2013-04-28T10:49:19Z</time>
      </trkpt>
      <trkpt lat="43.486643" lon="1.483457">
        <ele>258.7</ele>
        <time>2013-04-28T10:49:29Z</time>
      </trkpt>
      <trkpt lat="43.486566" lon="1.483567">
        <ele>258.7</ele>
        <time>2013-04-28T10:49:40Z</time>
      </trkpt>
      <trkpt lat="43.486498" lon="1.483657">
        <ele>262.6</ele>
        <time>2013-04-28T10:49:49Z</time>
      </trkpt>
      <trkpt lat="43.486428" lon="1.483753">
        <ele>254.9</ele>
        <time>2013-04-28T10:49:58Z</time>
      </trkpt>
      <trkpt lat="43.486373" lon="1.483863">
        <ele>253.4</ele>
        <time>2013-04-28T10:50:07Z</time>
      </trkpt>
      <trkpt lat="43.486290" lon="1.483986">
        <ele>252.0</ele>
        <time>2013-04-28T10:50:17Z</time>
      </trkpt>
      <trkpt lat="43.486227" lon="1.484107">
        <ele>251.0</ele>
        <time>2013-04-28T10:50:50Z</time>
      </trkpt>
      <trkpt lat="43.486145" lon="1.484215">
        <ele>250.1</ele>
        <time>2013-04-28T10:51:00Z</time>
      </trkpt>
      <trkpt lat="43.486067" lon="1.484345">
        <ele>248.2</ele>
        <time>2013-04-28T10:51:09Z</time>
      </trkpt>
      <trkpt lat="43.485988" lon="1.484459">
        <ele>247.7</ele>
        <time>2013-04-28T10:51:17Z</time>
      </trkpt>
      <trkpt lat="43.485909" lon="1.484575">
        <ele>246.2</ele>
        <time>2013-04-28T10:51:27Z</time>
      </trkpt>
      <trkpt lat="43.485830" lon="1.484704">
        <ele>244.8</ele>
        <time>2013-04-28T10:51:37Z</time>
      </trkpt>
      <trkpt lat="43.485743" lon="1.484801">
        <ele>243.4</ele>
        <time>2013-04-28T10:51:45Z</time>
      </trkpt>
      <trkpt lat="43.485665" lon="1.484882">
        <ele>242.4</ele>
        <time>2013-04-28T10:51:53Z</time>
      </trkpt>
      <trkpt lat="43.485547" lon="1.484949">
        <ele>240.0</ele>
        <time>2013-04-28T10:52:03Z</time>
      </trkpt>
      <trkpt lat="43.485434" lon="1.485010">
        <ele>238.5</ele>
        <time>2013-04-28T10:52:13Z</time>
      </trkpt>
      <trkpt lat="43.485324" lon="1.485060">
        <ele>236.1</ele>
        <time>2013-04-28T10:52:21Z</time>
      </trkpt>
      <trkpt lat="43.485238" lon="1.485108">
        <ele>234.2</ele>
        <time>2013-04-28T10:52:29Z</time>
      </trkpt>
      <trkpt lat="43.485137" lon="1.485149">
        <ele>232.8</ele>
        <time>2013-04-28T10:52:37Z</time>
      </trkpt>
      <trkpt lat="43.485051" lon="1.485185">
        <ele>230.9</ele>
        <time>2013-04-28T10:52:45Z</time>
      </trkpt>
      <trkpt lat="43.484963" lon="1.485223">
        <ele>229.4</ele>
        <time>2013-04-28T10:52:52Z</time>
      </trkpt>
      <trkpt lat="43.484875" lon="1.485274">
        <ele>228.0</ele>
        <time>2013-04-28T10:53:00Z</time>
      </trkpt>
      <trkpt lat="43.484775" lon="1.485307">
        <ele>226.5</ele>
        <time>2013-04-28T10:53:13Z</time>
      </trkpt>
      <trkpt lat="43.484691" lon="1.485366">
        <ele>225.6</ele>
        <time>2013-04-28T10:53:20Z</time>
      </trkpt>
      <trkpt lat="43.484609" lon="1.485401">
        <ele>224.6</ele>
        <time>2013-04-28T10:53:27Z</time>
      </trkpt>
      <trkpt lat="43.484523" lon="1.485442">
        <ele>222.2</ele>
        <time>2013-04-28T10:53:34Z</time>
      </trkpt>
      <trkpt lat="43.484436" lon="1.485482">
        <ele>220.8</ele>
        <time>2013-04-28T10:53:41Z</time>
      </trkpt>
      <trkpt lat="43.484339" lon="1.485526">
        <ele>218.8</ele>
        <time>2013-04-28T10:53:49Z</time>
      </trkpt>
      <trkpt lat="43.484232" lon="1.485566">
        <ele>217.4</ele>
        <time>2013-04-28T10:53:58Z</time>
      </trkpt>
      <trkpt lat="43.484140" lon="1.485625">
        <ele>215.9</ele>
        <time>2013-04-28T10:54:06Z</time>
      </trkpt>
      <trkpt lat="43.484054" lon="1.485664">
        <ele>214.5</ele>
        <time>2013-04-28T10:54:13Z</time>
      </trkpt>
      <trkpt lat="43.483956" lon="1.485705">
        <ele>213.6</ele>
        <time>2013-04-28T10:54:21Z</time>
      </trkpt>
      <trkpt lat="43.483861" lon="1.485758">
        <ele>211.6</ele>
        <time>2013-04-28T10:54:29Z</time>
      </trkpt>
      <trkpt lat="43.483768" lon="1.485803">
        <ele>210.2</ele>
        <time>2013-04-28T10:54:37Z</time>
      </trkpt>
      <trkpt lat="43.483679" lon="1.485839">
        <ele>209.7</ele>
        <time>2013-04-28T10:54:44Z</time>
      </trkpt>
      <trkpt lat="43.483576" lon="1.485881">
        <ele>207.8</ele>
        <time>2013-04-28T10:54:52Z</time>
      </trkpt>
      <trkpt lat="43.483474" lon="1.485931">
        <ele>205.4</ele>
        <time>2013-04-28T10:55:01Z</time>
      </trkpt>
      <trkpt lat="43.483344" lon="1.485990">
        <ele>203.9</ele>
        <time>2013-04-28T10:55:11Z</time>
      </trkpt>
      <trkpt lat="43.483210" lon="1.486047">
        <ele>202.0</ele>
        <time>2013-04-28T10:55:21Z</time>
      </trkpt>
      <trkpt lat="43.483080" lon="1.486140">
        <ele>201.5</ele>
        <time>2013-04-28T10:55:31Z</time>
      </trkpt>
      <trkpt lat="43.482950" lon="1.486239">
        <ele>203.9</ele>
        <time>2013-04-28T10:55:41Z</time>
      </trkpt>
      <trkpt lat="43.482835" lon="1.486306">
        <ele>205.4</ele>
        <time>2013-04-28T10:55:49Z</time>
      </trkpt>
      <trkpt lat="43.482738" lon="1.486373">
        <ele>207.3</ele>
        <time>2013-04-28T10:55:56Z</time>
      </trkpt>
      <trkpt lat="43.482643" lon="1.486419">
        <ele>209.7</ele>
        <time>2013-04-28T10:56:03Z</time>
      </trkpt>
      <trkpt lat="43.482548" lon="1.486461">
        <ele>211.1</ele>
        <time>2013-04-28T10:56:10Z</time>
      </trkpt>
      <trkpt lat="43.482452" lon="1.486477">
        <ele>212.1</ele>
        <time>2013-04-28T10:56:17Z</time>
      </trkpt>
      <trkpt lat="43.482349" lon="1.486500">
        <ele>213.6</ele>
        <time>2013-04-28T10:56:24Z</time>
      </trkpt>
      <trkpt lat="43.482247" lon="1.486519">
        <ele>215.0</ele>
        <time>2013-04-28T10:56:31Z</time>
      </trkpt>
      <trkpt lat="43.482145" lon="1.486555">
        <ele>216.9</ele>
        <time>2013-04-28T10:56:39Z</time>
      </trkpt>
      <trkpt lat="43.482047" lon="1.486586">
        <ele>217.9</ele>
        <time>2013-04-28T10:56:47Z</time>
      </trkpt>
      <trkpt lat="43.481936" lon="1.486603">
        <ele>219.8</ele>
        <time>2013-04-28T10:56:55Z</time>
      </trkpt>
      <trkpt lat="43.481837" lon="1.486641">
        <ele>221.2</ele>
        <time>2013-04-28T10:57:02Z</time>
      </trkpt>
      <trkpt lat="43.481725" lon="1.486671">
        <ele>222.7</ele>
        <time>2013-04-28T10:57:11Z</time>
      </trkpt>
      <trkpt lat="43.481631" lon="1.486703">
        <ele>224.1</ele>
        <time>2013-04-28T10:57:19Z</time>
      </trkpt>
      <trkpt lat="43.481535" lon="1.486752">
        <ele>225.1</ele>
        <time>2013-04-28T10:57:27Z</time>
      </trkpt>
      <trkpt lat="43.481433" lon="1.486775">
        <ele>226.1</ele>
        <time>2013-04-28T10:57:35Z</time>
      </trkpt>
      <trkpt lat="43.481315" lon="1.486818">
        <ele>227.5</ele>
        <time>2013-04-28T10:57:44Z</time>
      </trkpt>
      <trkpt lat="43.481216" lon="1.486839">
        <ele>228.4</ele>
        <time>2013-04-28T10:57:52Z</time>
      </trkpt>
      <trkpt lat="43.481111" lon="1.486879">
        <ele>229.9</ele>
        <time>2013-04-28T10:58:00Z</time>
      </trkpt>
      <trkpt lat="43.481020" lon="1.486903">
        <ele>230.4</ele>
        <time>2013-04-28T10:58:07Z</time>
      </trkpt>
      <trkpt lat="43.480933" lon="1.486932">
        <ele>231.3</ele>
        <time>2013-04-28T10:58:15Z</time>
      </trkpt>
      <trkpt lat="43.480819" lon="1.486968">
        <ele>231.8</ele>
        <time>2013-04-28T10:58:23Z</time>
      </trkpt>
      <trkpt lat="43.480723" lon="1.486987">
        <ele>233.3</ele>
        <time>2013-04-28T10:58:30Z</time>
      </trkpt>
      <trkpt lat="43.480614" lon="1.487016">
        <ele>234.2</ele>
        <time>2013-04-28T10:58:38Z</time>
      </trkpt>
      <trkpt lat="43.480503" lon="1.487046">
        <ele>234.7</ele>
        <time>2013-04-28T10:58:46Z</time>
      </trkpt>
      <trkpt lat="43.480408" lon="1.487092">
        <ele>235.2</ele>
        <time>2013-04-28T10:58:53Z</time>
      </trkpt>
      <trkpt lat="43.480324" lon="1.487165">
        <ele>235.7</ele>
        <time>2013-04-28T10:59:00Z</time>
      </trkpt>
      <trkpt lat="43.480244" lon="1.487265">
        <ele>236.6</ele>
        <time>2013-04-28T10:59:07Z</time>
      </trkpt>
      <trkpt lat="43.480161" lon="1.487362">
        <ele>236.6</ele>
        <time>2013-04-28T10:59:15Z</time>
      </trkpt>
      <trkpt lat="43.480092" lon="1.487444">
        <ele>236.6</ele>
        <time>2013-04-28T10:59:22Z</time>
      </trkpt>
      <trkpt lat="43.480022" lon="1.487542">
        <ele>237.1</ele>
        <time>2013-04-28T10:59:29Z</time>
      </trkpt>
      <trkpt lat="43.479947" lon="1.487649">
        <ele>236.6</ele>
        <time>2013-04-28T10:59:37Z</time>
      </trkpt>
      <trkpt lat="43.479860" lon="1.487747">
        <ele>237.1</ele>
        <time>2013-04-28T10:59:45Z</time>
      </trkpt>
      <trkpt lat="43.479779" lon="1.487833">
        <ele>237.1</ele>
        <time>2013-04-28T10:59:53Z</time>
      </trkpt>
      <trkpt lat="43.479711" lon="1.487934">
        <ele>236.6</ele>
        <time>2013-04-28T11:00:01Z</time>
      </trkpt>
      <trkpt lat="43.479629" lon="1.488034">
        <ele>237.1</ele>
        <time>2013-04-28T11:00:09Z</time>
      </trkpt>
      <trkpt lat="43.479545" lon="1.488135">
        <ele>237.1</ele>
        <time>2013-04-28T11:00:16Z</time>
      </trkpt>
      <trkpt lat="43.479455" lon="1.488213">
        <ele>237.1</ele>
        <time>2013-04-28T11:00:24Z</time>
      </trkpt>
      <trkpt lat="43.479382" lon="1.488312">
        <ele>236.6</ele>
        <time>2013-04-28T11:00:31Z</time>
      </trkpt>
      <trkpt lat="43.479303" lon="1.488413">
        <ele>237.1</ele>
        <time>2013-04-28T11:00:39Z</time>
      </trkpt>
      <trkpt lat="43.479220" lon="1.488508">
        <ele>236.6</ele>
        <time>2013-04-28T11:00:46Z</time>
      </trkpt>
      <trkpt lat="43.479150" lon="1.488618">
        <ele>236.6</ele>
        <time>2013-04-28T11:00:54Z</time>
      </trkpt>
      <trkpt lat="43.479076" lon="1.488722">
        <ele>236.6</ele>
        <time>2013-04-28T11:01:02Z</time>
      </trkpt>
      <trkpt lat="43.479001" lon="1.488829">
        <ele>236.6</ele>
        <time>2013-04-28T11:01:10Z</time>
      </trkpt>
      <trkpt lat="43.478925" lon="1.488946">
        <ele>237.1</ele>
        <time>2013-04-28T11:01:18Z</time>
      </trkpt>
      <trkpt lat="43.478856" lon="1.489056">
        <ele>237.1</ele>
        <time>2013-04-28T11:01:26Z</time>
      </trkpt>
      <trkpt lat="43.478792" lon="1.489175">
        <ele>237.1</ele>
        <time>2013-04-28T11:01:34Z</time>
      </trkpt>
      <trkpt lat="43.478721" lon="1.489291">
        <ele>237.1</ele>
        <time>2013-04-28T11:01:42Z</time>
      </trkpt>
      <trkpt lat="43.478645" lon="1.489402">
        <ele>237.6</ele>
        <time>2013-04-28T11:01:50Z</time>
      </trkpt>
      <trkpt lat="43.478572" lon="1.489500">
        <ele>237.6</ele>
        <time>2013-04-28T11:01:57Z</time>
      </trkpt>
      <trkpt lat="43.478498" lon="1.489607">
        <ele>237.6</ele>
        <time>2013-04-28T11:02:05Z</time>
      </trkpt>
      <trkpt lat="43.478427" lon="1.489723">
        <ele>238.1</ele>
        <time>2013-04-28T11:02:13Z</time>
      </trkpt>
      <trkpt lat="43.478369" lon="1.489823">
        <ele>237.6</ele>
        <time>2013-04-28T11:02:20Z</time>
      </trkpt>
      <trkpt lat="43.478299" lon="1.489939">
        <ele>238.5</ele>
        <time>2013-04-28T11:02:28Z</time>
      </trkpt>
      <trkpt lat="43.478233" lon="1.490039">
        <ele>238.5</ele>
        <time>2013-04-28T11:02:35Z</time>
      </trkpt>
      <trkpt lat="43.478174" lon="1.490140">
        <ele>238.5</ele>
        <time>2013-04-28T11:02:42Z</time>
      </trkpt>
      <trkpt lat="43.478107" lon="1.490230">
        <ele>239.0</ele>
        <time>2013-04-28T11:02:49Z</time>
      </trkpt>
      <trkpt lat="43.478045" lon="1.490323">
        <ele>239.5</ele>
        <time>2013-04-28T11:02:56Z</time>
      </trkpt>
      <trkpt lat="43.477968" lon="1.490419">
        <ele>239.5</ele>
        <time>2013-04-28T11:03:04Z</time>
      </trkpt>
      <trkpt lat="43.477883" lon="1.490507">
        <ele>239.5</ele>
        <time>2013-04-28T11:03:12Z</time>
      </trkpt>
      <trkpt lat="43.477802" lon="1.490582">
        <ele>240.0</ele>
        <time>2013-04-28T11:03:19Z</time>
      </trkpt>
      <trkpt lat="43.477721" lon="1.490650">
        <ele>240.0</ele>
        <time>2013-04-28T11:03:26Z</time>
      </trkpt>
      <trkpt lat="43.477645" lon="1.490703">
        <ele>240.0</ele>
        <time>2013-04-28T11:03:33Z</time>
      </trkpt>
      <trkpt lat="43.477556" lon="1.490767">
        <ele>240.0</ele>
        <time>2013-04-28T11:03:40Z</time>
      </trkpt>
      <trkpt lat="43.477478" lon="1.490835">
        <ele>240.5</ele>
        <time>2013-04-28T11:03:47Z</time>
      </trkpt>
      <trkpt lat="43.477406" lon="1.490910">
        <ele>240.5</ele>
        <time>2013-04-28T11:03:55Z</time>
      </trkpt>
      <trkpt lat="43.477323" lon="1.490977">
        <ele>241.4</ele>
        <time>2013-04-28T11:04:03Z</time>
      </trkpt>
      <trkpt lat="43.477238" lon="1.491032">
        <ele>241.4</ele>
        <time>2013-04-28T11:04:10Z</time>
      </trkpt>
      <trkpt lat="43.477164" lon="1.491050">
        <ele>241.9</ele>
        <time>2013-04-28T11:05:01Z</time>
        <name>Montseignet</name>
      </trkpt>
      <trkpt lat="43.477135" lon="1.490915">
        <ele>242.4</ele>
        <time>2013-04-28T11:05:09Z</time>
      </trkpt>
      <trkpt lat="43.477137" lon="1.490769">
        <ele>241.4</ele>
        <time>2013-04-28T11:05:17Z</time>
      </trkpt>
      <trkpt lat="43.477135" lon="1.490615">
        <ele>241.9</ele>
        <time>2013-04-28T11:05:26Z</time>
      </trkpt>
      <trkpt lat="43.477127" lon="1.490466">
        <ele>241.4</ele>
        <time>2013-04-28T11:05:34Z</time>
      </trkpt>
      <trkpt lat="43.477121" lon="1.490342">
        <ele>241.4</ele>
        <time>2013-04-28T11:05:41Z</time>
      </trkpt>
      <trkpt lat="43.477112" lon="1.490196">
        <ele>240.9</ele>
        <time>2013-04-28T11:05:49Z</time>
      </trkpt>
      <trkpt lat="43.477107" lon="1.490054">
        <ele>240.9</ele>
        <time>2013-04-28T11:05:57Z</time>
      </trkpt>
      <trkpt lat="43.477102" lon="1.489919">
        <ele>240.5</ele>
        <time>2013-04-28T11:06:05Z</time>
      </trkpt>
      <trkpt lat="43.477090" lon="1.489757">
        <ele>239.5</ele>
        <time>2013-04-28T11:06:14Z</time>
      </trkpt>
      <trkpt lat="43.477083" lon="1.489609">
        <ele>239.0</ele>
        <time>2013-04-28T11:06:22Z</time>
      </trkpt>
      <trkpt lat="43.477077" lon="1.489454">
        <ele>239.0</ele>
        <time>2013-04-28T11:06:31Z</time>
      </trkpt>
      <trkpt lat="43.477076" lon="1.489328">
        <ele>239.0</ele>
        <time>2013-04-28T11:06:38Z</time>
      </trkpt>
      <trkpt lat="43.477069" lon="1.489191">
        <ele>239.0</ele>
        <time>2013-04-28T11:06:45Z</time>
      </trkpt>
      <trkpt lat="43.477067" lon="1.489071">
        <ele>239.0</ele>
        <time>2013-04-28T11:06:52Z</time>
      </trkpt>
      <trkpt lat="43.477069" lon="1.488935">
        <ele>239.0</ele>
        <time>2013-04-28T11:06:59Z</time>
      </trkpt>
      <trkpt lat="43.477094" lon="1.488803">
        <ele>239.0</ele>
        <time>2013-04-28T11:07:07Z</time>
      </trkpt>
      <trkpt lat="43.477116" lon="1.488655">
        <ele>239.5</ele>
        <time>2013-04-28T11:07:15Z</time>
      </trkpt>
      <trkpt lat="43.477157" lon="1.488514">
        <ele>239.0</ele>
        <time>2013-04-28T11:07:23Z</time>
      </trkpt>
      <trkpt lat="43.477185" lon="1.488368">
        <ele>239.5</ele>
        <time>2013-04-28T11:07:31Z</time>
      </trkpt>
      <trkpt lat="43.477209" lon="1.488215">
        <ele>239.5</ele>
        <time>2013-04-28T11:07:39Z</time>
      </trkpt>
      <trkpt lat="43.477235" lon="1.488061">
        <ele>239.0</ele>
        <time>2013-04-28T11:07:47Z</time>
      </trkpt>
      <trkpt lat="43.477247" lon="1.487911">
        <ele>239.5</ele>
        <time>2013-04-28T11:07:55Z</time>
      </trkpt>
      <trkpt lat="43.477265" lon="1.487762">
        <ele>239.5</ele>
        <time>2013-04-28T11:08:04Z</time>
      </trkpt>
      <trkpt lat="43.477294" lon="1.487601">
        <ele>239.5</ele>
        <time>2013-04-28T11:08:14Z</time>
      </trkpt>
      <trkpt lat="43.477330" lon="1.487424">
        <ele>240.5</ele>
        <time>2013-04-28T11:08:24Z</time>
      </trkpt>
      <trkpt lat="43.477366" lon="1.487242">
        <ele>240.9</ele>
        <time>2013-04-28T11:08:34Z</time>
      </trkpt>
      <trkpt lat="43.477404" lon="1.487083">
        <ele>241.4</ele>
        <time>2013-04-28T11:08:43Z</time>
      </trkpt>
      <trkpt lat="43.477431" lon="1.486907">
        <ele>241.4</ele>
        <time>2013-04-28T11:08:54Z</time>
      </trkpt>
      <trkpt lat="43.477463" lon="1.486739">
        <ele>241.9</ele>
        <time>2013-04-28T11:09:02Z</time>
      </trkpt>
      <trkpt lat="43.477501" lon="1.486593">
        <ele>241.9</ele>
        <time>2013-04-28T11:09:09Z</time>
      </trkpt>
      <trkpt lat="43.477542" lon="1.486433">
        <ele>241.4</ele>
        <time>2013-04-28T11:09:17Z</time>
      </trkpt>
      <trkpt lat="43.477587" lon="1.486287">
        <ele>241.9</ele>
        <time>2013-04-28T11:09:25Z</time>
      </trkpt>
      <trkpt lat="43.477627" lon="1.486156">
        <ele>241.4</ele>
        <time>2013-04-28T11:09:33Z</time>
      </trkpt>
      <trkpt lat="43.477668" lon="1.486033">
        <ele>240.5</ele>
        <time>2013-04-28T11:09:40Z</time>
      </trkpt>
      <trkpt lat="43.477708" lon="1.485911">
        <ele>240.0</ele>
        <time>2013-04-28T11:09:47Z</time>
      </trkpt>
      <trkpt lat="43.477746" lon="1.485768">
        <ele>240.0</ele>
        <time>2013-04-28T11:09:55Z</time>
      </trkpt>
      <trkpt lat="43.477776" lon="1.485637">
        <ele>239.5</ele>
        <time>2013-04-28T11:10:02Z</time>
      </trkpt>
      <trkpt lat="43.477804" lon="1.485496">
        <ele>238.5</ele>
        <time>2013-04-28T11:10:10Z</time>
      </trkpt>
      <trkpt lat="43.477808" lon="1.485360">
        <ele>238.1</ele>
        <time>2013-04-28T11:10:17Z</time>
      </trkpt>
      <trkpt lat="43.477808" lon="1.485220">
        <ele>238.1</ele>
        <time>2013-04-28T11:10:25Z</time>
      </trkpt>
      <trkpt lat="43.477800" lon="1.485077">
        <ele>237.6</ele>
        <time>2013-04-28T11:10:33Z</time>
      </trkpt>
      <trkpt lat="43.477772" lon="1.484911">
        <ele>237.1</ele>
        <time>2013-04-28T11:10:42Z</time>
      </trkpt>
      <trkpt lat="43.477739" lon="1.484746">
        <ele>237.1</ele>
        <time>2013-04-28T11:10:51Z</time>
      </trkpt>
      <trkpt lat="43.477720" lon="1.484574">
        <ele>237.1</ele>
        <time>2013-04-28T11:11:00Z</time>
      </trkpt>
      <trkpt lat="43.477693" lon="1.484405">
        <ele>237.1</ele>
        <time>2013-04-28T11:11:09Z</time>
      </trkpt>
      <trkpt lat="43.477678" lon="1.484230">
        <ele>237.6</ele>
        <time>2013-04-28T11:11:19Z</time>
      </trkpt>
      <trkpt lat="43.477643" lon="1.484088">
        <ele>238.5</ele>
        <time>2013-04-28T11:11:31Z</time>
      </trkpt>
      <trkpt lat="43.477617" lon="1.483934">
        <ele>238.1</ele>
        <time>2013-04-28T11:11:39Z</time>
      </trkpt>
      <trkpt lat="43.477585" lon="1.483793">
        <ele>239.0</ele>
        <time>2013-04-28T11:11:46Z</time>
      </trkpt>
      <trkpt lat="43.477562" lon="1.483635">
        <ele>239.0</ele>
        <time>2013-04-28T11:11:55Z</time>
      </trkpt>
      <trkpt lat="43.477549" lon="1.483484">
        <ele>239.5</ele>
        <time>2013-04-28T11:12:04Z</time>
      </trkpt>
      <trkpt lat="43.477528" lon="1.483328">
        <ele>239.5</ele>
        <time>2013-04-28T11:12:13Z</time>
      </trkpt>
      <trkpt lat="43.477494" lon="1.483160">
        <ele>240.0</ele>
        <time>2013-04-28T11:12:22Z</time>
      </trkpt>
      <trkpt lat="43.477473" lon="1.483000">
        <ele>240.9</ele>
        <time>2013-04-28T11:12:30Z</time>
      </trkpt>
      <trkpt lat="43.477443" lon="1.482843">
        <ele>241.4</ele>
        <time>2013-04-28T11:12:38Z</time>
      </trkpt>
      <trkpt lat="43.477435" lon="1.482686">
        <ele>242.4</ele>
        <time>2013-04-28T11:12:47Z</time>
      </trkpt>
      <trkpt lat="43.477405" lon="1.482518">
        <ele>242.9</ele>
        <time>2013-04-28T11:12:57Z</time>
      </trkpt>
      <trkpt lat="43.477387" lon="1.482334">
        <ele>243.8</ele>
        <time>2013-04-28T11:13:07Z</time>
      </trkpt>
      <trkpt lat="43.477364" lon="1.482178">
        <ele>244.3</ele>
        <time>2013-04-28T11:13:15Z</time>
      </trkpt>
      <trkpt lat="43.477339" lon="1.482011">
        <ele>245.8</ele>
        <time>2013-04-28T11:13:24Z</time>
      </trkpt>
      <trkpt lat="43.477317" lon="1.481833">
        <ele>247.2</ele>
        <time>2013-04-28T11:13:34Z</time>
      </trkpt>
      <trkpt lat="43.477290" lon="1.481664">
        <ele>247.7</ele>
        <time>2013-04-28T11:13:42Z</time>
      </trkpt>
      <trkpt lat="43.477268" lon="1.481506">
        <ele>249.1</ele>
        <time>2013-04-28T11:13:51Z</time>
      </trkpt>
      <trkpt lat="43.477255" lon="1.481366">
        <ele>248.6</ele>
        <time>2013-04-28T11:13:59Z</time>
      </trkpt>
      <trkpt lat="43.477246" lon="1.481221">
        <ele>248.2</ele>
        <time>2013-04-28T11:14:07Z</time>
      </trkpt>
      <trkpt lat="43.477240" lon="1.481067">
        <ele>247.7</ele>
        <time>2013-04-28T11:14:15Z</time>
      </trkpt>
      <trkpt lat="43.477244" lon="1.480914">
        <ele>248.2</ele>
        <time>2013-04-28T11:14:23Z</time>
      </trkpt>
      <trkpt lat="43.477242" lon="1.480759">
        <ele>247.7</ele>
        <time>2013-04-28T11:14:30Z</time>
      </trkpt>
      <trkpt lat="43.477249" lon="1.480629">
        <ele>247.7</ele>
        <time>2013-04-28T11:14:37Z</time>
      </trkpt>
      <trkpt lat="43.477258" lon="1.480489">
        <ele>247.2</ele>
        <time>2013-04-28T11:14:45Z</time>
      </trkpt>
      <trkpt lat="43.477262" lon="1.480347">
        <ele>247.7</ele>
        <time>2013-04-28T11:14:53Z</time>
      </trkpt>
      <trkpt lat="43.477268" lon="1.480203">
        <ele>246.7</ele>
        <time>2013-04-28T11:15:01Z</time>
      </trkpt>
      <trkpt lat="43.477273" lon="1.480058">
        <ele>245.8</ele>
        <time>2013-04-28T11:15:09Z</time>
      </trkpt>
      <trkpt lat="43.477276" lon="1.479908">
        <ele>244.8</ele>
        <time>2013-04-28T11:15:17Z</time>
      </trkpt>
      <trkpt lat="43.477276" lon="1.479764">
        <ele>244.3</ele>
        <time>2013-04-28T11:15:24Z</time>
      </trkpt>
      <trkpt lat="43.477278" lon="1.479639">
        <ele>243.4</ele>
        <time>2013-04-28T11:15:31Z</time>
      </trkpt>
      <trkpt lat="43.477280" lon="1.479507">
        <ele>242.4</ele>
        <time>2013-04-28T11:15:38Z</time>
      </trkpt>
      <trkpt lat="43.477278" lon="1.479374">
        <ele>241.4</ele>
        <time>2013-04-28T11:15:45Z</time>
      </trkpt>
      <trkpt lat="43.477274" lon="1.479241">
        <ele>240.9</ele>
        <time>2013-04-28T11:15:52Z</time>
      </trkpt>
      <trkpt lat="43.477270" lon="1.479104">
        <ele>240.0</ele>
        <time>2013-04-28T11:15:59Z</time>
      </trkpt>
      <trkpt lat="43.477267" lon="1.478968">
        <ele>239.0</ele>
        <time>2013-04-28T11:16:06Z</time>
      </trkpt>
      <trkpt lat="43.477262" lon="1.478832">
        <ele>239.0</ele>
        <time>2013-04-28T11:16:13Z</time>
      </trkpt>
      <trkpt lat="43.477263" lon="1.478700">
        <ele>238.1</ele>
        <time>2013-04-28T11:16:20Z</time>
      </trkpt>
      <trkpt lat="43.477264" lon="1.478563">
        <ele>238.1</ele>
        <time>2013-04-28T11:16:28Z</time>
      </trkpt>
      <trkpt lat="43.477278" lon="1.478400">
        <ele>236.6</ele>
        <time>2013-04-28T11:16:38Z</time>
      </trkpt>
      <trkpt lat="43.477288" lon="1.478249">
        <ele>236.1</ele>
        <time>2013-04-28T11:16:47Z</time>
      </trkpt>
      <trkpt lat="43.477297" lon="1.478078">
        <ele>235.2</ele>
        <time>2013-04-28T11:16:56Z</time>
      </trkpt>
      <trkpt lat="43.477326" lon="1.477906">
        <ele>233.3</ele>
        <time>2013-04-28T11:17:05Z</time>
      </trkpt>
      <trkpt lat="43.477350" lon="1.477765">
        <ele>231.8</ele>
        <time>2013-04-28T11:17:13Z</time>
      </trkpt>
      <trkpt lat="43.477374" lon="1.477634">
        <ele>230.9</ele>
        <time>2013-04-28T11:17:21Z</time>
      </trkpt>
      <trkpt lat="43.477392" lon="1.477499">
        <ele>229.9</ele>
        <time>2013-04-28T11:17:29Z</time>
      </trkpt>
      <trkpt lat="43.477409" lon="1.477351">
        <ele>228.9</ele>
        <time>2013-04-28T11:17:38Z</time>
      </trkpt>
      <trkpt lat="43.477434" lon="1.477174">
        <ele>228.4</ele>
        <time>2013-04-28T11:17:47Z</time>
      </trkpt>
      <trkpt lat="43.477462" lon="1.477023">
        <ele>227.5</ele>
        <time>2013-04-28T11:17:56Z</time>
      </trkpt>
      <trkpt lat="43.477500" lon="1.476886">
        <ele>226.5</ele>
        <time>2013-04-28T11:18:05Z</time>
      </trkpt>
      <trkpt lat="43.477528" lon="1.476725">
        <ele>225.1</ele>
        <time>2013-04-28T11:18:13Z</time>
      </trkpt>
      <trkpt lat="43.477546" lon="1.476569">
        <ele>225.6</ele>
        <time>2013-04-28T11:18:21Z</time>
      </trkpt>
      <trkpt lat="43.477571" lon="1.476445">
        <ele>220.8</ele>
        <time>2013-04-28T11:18:28Z</time>
      </trkpt>
      <trkpt lat="43.477606" lon="1.476324">
        <ele>227.5</ele>
        <time>2013-04-28T11:18:36Z</time>
      </trkpt>
      <trkpt lat="43.477644" lon="1.476187">
        <ele>223.2</ele>
        <time>2013-04-28T11:18:45Z</time>
      </trkpt>
      <trkpt lat="43.477687" lon="1.476048">
        <ele>219.3</ele>
        <time>2013-04-28T11:18:54Z</time>
      </trkpt>
      <trkpt lat="43.477720" lon="1.475920">
        <ele>218.8</ele>
        <time>2013-04-28T11:19:03Z</time>
      </trkpt>
      <trkpt lat="43.477765" lon="1.475801">
        <ele>217.9</ele>
        <time>2013-04-28T11:19:12Z</time>
      </trkpt>
      <trkpt lat="43.477812" lon="1.475685">
        <ele>214.5</ele>
        <time>2013-04-28T11:19:20Z</time>
      </trkpt>
      <trkpt lat="43.477846" lon="1.475554">
        <ele>218.4</ele>
        <time>2013-04-28T11:19:28Z</time>
      </trkpt>
      <trkpt lat="43.477887" lon="1.475429">
        <ele>217.4</ele>
        <time>2013-04-28T11:19:36Z</time>
      </trkpt>
      <trkpt lat="43.477930" lon="1.475296">
        <ele>215.5</ele>
        <time>2013-04-28T11:19:45Z</time>
      </trkpt>
      <trkpt lat="43.477975" lon="1.475171">
        <ele>215.5</ele>
        <time>2013-04-28T11:19:53Z</time>
      </trkpt>
      <trkpt lat="43.478013" lon="1.475044">
        <ele>214.5</ele>
        <time>2013-04-28T11:20:01Z</time>
      </trkpt>
      <trkpt lat="43.478062" lon="1.474903">
        <ele>213.6</ele>
        <time>2013-04-28T11:20:10Z</time>
      </trkpt>
      <trkpt lat="43.478104" lon="1.474762">
        <ele>212.6</ele>
        <time>2013-04-28T11:20:18Z</time>
      </trkpt>
      <trkpt lat="43.478147" lon="1.474620">
        <ele>211.6</ele>
        <time>2013-04-28T11:20:27Z</time>
      </trkpt>
      <trkpt lat="43.478181" lon="1.474479">
        <ele>210.7</ele>
        <time>2013-04-28T11:20:35Z</time>
      </trkpt>
      <trkpt lat="43.478216" lon="1.474333">
        <ele>209.2</ele>
        <time>2013-04-28T11:20:44Z</time>
      </trkpt>
      <trkpt lat="43.478250" lon="1.474195">
        <ele>208.3</ele>
        <time>2013-04-28T11:20:52Z</time>
      </trkpt>
      <trkpt lat="43.478275" lon="1.474062">
        <ele>207.3</ele>
        <time>2013-04-28T11:21:00Z</time>
      </trkpt>
      <trkpt lat="43.478303" lon="1.473931">
        <ele>205.9</ele>
        <time>2013-04-28T11:21:07Z</time>
      </trkpt>
      <trkpt lat="43.478322" lon="1.473815">
        <ele>204.4</ele>
        <time>2013-04-28T11:21:14Z</time>
      </trkpt>
      <trkpt lat="43.478339" lon="1.473689">
        <ele>203.5</ele>
        <time>2013-04-28T11:21:21Z</time>
      </trkpt>
      <trkpt lat="43.478361" lon="1.473559">
        <ele>201.5</ele>
        <time>2013-04-28T11:21:28Z</time>
      </trkpt>
      <trkpt lat="43.478375" lon="1.473431">
        <ele>200.6</ele>
        <time>2013-04-28T11:21:35Z</time>
      </trkpt>
      <trkpt lat="43.478379" lon="1.473297">
        <ele>199.1</ele>
        <time>2013-04-28T11:21:42Z</time>
      </trkpt>
      <trkpt lat="43.478388" lon="1.473170">
        <ele>197.7</ele>
        <time>2013-04-28T11:21:49Z</time>
      </trkpt>
      <trkpt lat="43.478389" lon="1.473017">
        <ele>196.7</ele>
        <time>2013-04-28T11:21:57Z</time>
      </trkpt>
      <trkpt lat="43.478386" lon="1.472866">
        <ele>194.8</ele>
        <time>2013-04-28T11:22:05Z</time>
      </trkpt>
      <trkpt lat="43.478366" lon="1.472717">
        <ele>193.8</ele>
        <time>2013-04-28T11:22:13Z</time>
      </trkpt>
      <trkpt lat="43.478337" lon="1.472593">
        <ele>192.4</ele>
        <time>2013-04-28T11:22:20Z</time>
      </trkpt>
      <trkpt lat="43.478288" lon="1.472495">
        <ele>191.0</ele>
        <time>2013-04-28T11:22:27Z</time>
      </trkpt>
      <trkpt lat="43.478226" lon="1.472395">
        <ele>190.0</ele>
        <time>2013-04-28T11:22:35Z</time>
      </trkpt>
      <trkpt lat="43.478162" lon="1.472311">
        <ele>189.0</ele>
        <time>2013-04-28T11:22:43Z</time>
      </trkpt>
      <trkpt lat="43.478083" lon="1.472222">
        <ele>188.6</ele>
        <time>2013-04-28T11:22:51Z</time>
      </trkpt>
      <trkpt lat="43.477998" lon="1.472156">
        <ele>188.1</ele>
        <time>2013-04-28T11:22:58Z</time>
      </trkpt>
      <trkpt lat="43.477907" lon="1.472089">
        <ele>187.6</ele>
        <time>2013-04-28T11:23:06Z</time>
      </trkpt>
      <trkpt lat="43.477818" lon="1.472026">
        <ele>187.1</ele>
        <time>2013-04-28T11:23:16Z</time>
      </trkpt>
      <trkpt lat="43.477707" lon="1.471992">
        <ele>187.1</ele>
        <time>2013-04-28T11:23:25Z</time>
      </trkpt>
      <trkpt lat="43.477687" lon="1.471859">
        <ele>187.1</ele>
        <time>2013-04-28T11:23:33Z</time>
      </trkpt>
      <trkpt lat="43.477737" lon="1.471730">
        <ele>185.7</ele>
        <time>2013-04-28T11:23:41Z</time>
      </trkpt>
      <trkpt lat="43.477781" lon="1.471599">
        <ele>185.7</ele>
        <time>2013-04-28T11:23:49Z</time>
      </trkpt>
      <trkpt lat="43.477842" lon="1.471479">
        <ele>185.7</ele>
        <time>2013-04-28T11:23:57Z</time>
      </trkpt>
      <trkpt lat="43.477899" lon="1.471360">
        <ele>186.1</ele>
        <time>2013-04-28T11:24:04Z</time>
      </trkpt>
      <trkpt lat="43.477948" lon="1.471244">
        <ele>185.7</ele>
        <time>2013-04-28T11:24:12Z</time>
      </trkpt>
      <trkpt lat="43.478014" lon="1.471116">
        <ele>186.1</ele>
        <time>2013-04-28T11:24:21Z</time>
      </trkpt>
      <trkpt lat="43.478087" lon="1.470982">
        <ele>185.7</ele>
        <time>2013-04-28T11:24:31Z</time>
      </trkpt>
      <trkpt lat="43.478161" lon="1.470860">
        <ele>185.7</ele>
        <time>2013-04-28T11:24:39Z</time>
      </trkpt>
      <trkpt lat="43.478242" lon="1.470726">
        <ele>185.2</ele>
        <time>2013-04-28T11:24:50Z</time>
      </trkpt>
      <trkpt lat="43.478308" lon="1.470593">
        <ele>185.7</ele>
        <time>2013-04-28T11:25:00Z</time>
      </trkpt>
      <trkpt lat="43.478364" lon="1.470430">
        <ele>184.7</ele>
        <time>2013-04-28T11:25:10Z</time>
      </trkpt>
      <trkpt lat="43.478440" lon="1.470264">
        <ele>185.2</ele>
        <time>2013-04-28T11:25:22Z</time>
      </trkpt>
      <trkpt lat="43.478519" lon="1.470072">
        <ele>185.2</ele>
        <time>2013-04-28T11:25:35Z</time>
      </trkpt>
      <trkpt lat="43.478592" lon="1.469923">
        <ele>185.2</ele>
        <time>2013-04-28T11:25:44Z</time>
      </trkpt>
      <trkpt lat="43.478667" lon="1.469783">
        <ele>185.2</ele>
        <time>2013-04-28T11:25:54Z</time>
      </trkpt>
      <trkpt lat="43.478751" lon="1.469669">
        <ele>185.2</ele>
        <time>2013-04-28T11:26:09Z</time>
      </trkpt>
      <trkpt lat="43.478858" lon="1.469702">
        <ele>184.2</ele>
        <time>2013-04-28T11:26:43Z</time>
      </trkpt>
      <trkpt lat="43.478946" lon="1.469634">
        <ele>183.8</ele>
        <time>2013-04-28T11:26:54Z</time>
      </trkpt>
      <trkpt lat="43.479047" lon="1.469505">
        <ele>184.2</ele>
        <time>2013-04-28T11:27:09Z</time>
      </trkpt>
      <trkpt lat="43.479131" lon="1.469415">
        <ele>184.2</ele>
        <time>2013-04-28T11:27:17Z</time>
      </trkpt>
      <trkpt lat="43.479216" lon="1.469344">
        <ele>183.8</ele>
        <time>2013-04-28T11:27:24Z</time>
      </trkpt>
      <trkpt lat="43.479300" lon="1.469262">
        <ele>183.8</ele>
        <time>2013-04-28T11:27:32Z</time>
      </trkpt>
      <trkpt lat="43.479402" lon="1.469153">
        <ele>183.8</ele>
        <time>2013-04-28T11:27:42Z</time>
      </trkpt>
      <trkpt lat="43.479487" lon="1.469055">
        <ele>183.8</ele>
        <time>2013-04-28T11:27:51Z</time>
      </trkpt>
      <trkpt lat="43.479575" lon="1.468931">
        <ele>183.3</ele>
        <time>2013-04-28T11:28:01Z</time>
      </trkpt>
      <trkpt lat="43.479667" lon="1.468813">
        <ele>183.3</ele>
        <time>2013-04-28T11:28:11Z</time>
      </trkpt>
      <trkpt lat="43.479767" lon="1.468709">
        <ele>184.7</ele>
        <time>2013-04-28T11:28:20Z</time>
      </trkpt>
      <trkpt lat="43.479869" lon="1.468633">
        <ele>185.2</ele>
        <time>2013-04-28T11:28:29Z</time>
      </trkpt>
      <trkpt lat="43.479977" lon="1.468563">
        <ele>181.8</ele>
        <time>2013-04-28T11:28:39Z</time>
      </trkpt>
      <trkpt lat="43.480102" lon="1.468515">
        <ele>183.3</ele>
        <time>2013-04-28T11:28:50Z</time>
      </trkpt>
      <trkpt lat="43.480225" lon="1.468471">
        <ele>183.8</ele>
        <time>2013-04-28T11:29:00Z</time>
      </trkpt>
      <trkpt lat="43.480340" lon="1.468422">
        <ele>183.8</ele>
        <time>2013-04-28T11:29:09Z</time>
      </trkpt>
      <trkpt lat="43.480473" lon="1.468355">
        <ele>183.3</ele>
        <time>2013-04-28T11:29:20Z</time>
      </trkpt>
      <trkpt lat="43.480594" lon="1.468295">
        <ele>184.2</ele>
        <time>2013-04-28T11:29:29Z</time>
      </trkpt>
      <trkpt lat="43.480673" lon="1.468189">
        <ele>183.8</ele>
        <time>2013-04-28T11:29:42Z</time>
      </trkpt>
      <trkpt lat="43.480751" lon="1.468023">
        <ele>183.3</ele>
        <time>2013-04-28T11:29:54Z</time>
      </trkpt>
      <trkpt lat="43.480840" lon="1.467803">
        <ele>183.3</ele>
        <time>2013-04-28T11:30:10Z</time>
      </trkpt>
      <trkpt lat="43.480942" lon="1.467629">
        <ele>183.8</ele>
        <time>2013-04-28T11:30:25Z</time>
      </trkpt>
      <trkpt lat="43.481019" lon="1.467514">
        <ele>183.3</ele>
        <time>2013-04-28T11:30:38Z</time>
      </trkpt>
      <trkpt lat="43.481184" lon="1.467287">
        <ele>183.3</ele>
        <time>2013-04-28T11:30:56Z</time>
      </trkpt>
      <trkpt lat="43.481433" lon="1.467271">
        <ele>183.8</ele>
        <time>2013-04-28T11:31:49Z</time>
      </trkpt>
      <trkpt lat="43.481573" lon="1.467234">
        <ele>183.8</ele>
        <time>2013-04-28T11:32:05Z</time>
      </trkpt>
      <trkpt lat="43.481828" lon="1.467156">
        <ele>184.7</ele>
        <time>2013-04-28T11:32:59Z</time>
      </trkpt>
      <trkpt lat="43.481993" lon="1.467032">
        <ele>184.7</ele>
        <time>2013-04-28T11:33:22Z</time>
      </trkpt>
      <trkpt lat="43.482153" lon="1.466961">
        <ele>184.7</ele>
        <time>2013-04-28T11:33:46Z</time>
      </trkpt>
      <trkpt lat="43.482260" lon="1.466856">
        <ele>185.7</ele>
        <time>2013-04-28T11:33:57Z</time>
      </trkpt>
      <trkpt lat="43.482369" lon="1.466768">
        <ele>185.7</ele>
        <time>2013-04-28T11:34:09Z</time>
      </trkpt>
      <trkpt lat="43.482483" lon="1.466628">
        <ele>185.7</ele>
        <time>2013-04-28T11:34:50Z</time>
      </trkpt>
      <trkpt lat="43.482568" lon="1.466556">
        <ele>185.7</ele>
        <time>2013-04-28T11:35:44Z</time>
      </trkpt>
      <trkpt lat="43.482698" lon="1.466445">
        <ele>186.1</ele>
        <time>2013-04-28T11:36:02Z</time>
      </trkpt>
      <trkpt lat="43.482878" lon="1.466333">
        <ele>186.6</ele>
        <time>2013-04-28T11:36:31Z</time>
      </trkpt>
      <trkpt lat="43.483060" lon="1.466320">
        <ele>188.1</ele>
        <time>2013-04-28T11:37:18Z</time>
      </trkpt>
      <trkpt lat="43.483210" lon="1.466312">
        <ele>188.6</ele>
        <time>2013-04-28T11:37:33Z</time>
      </trkpt>
      <trkpt lat="43.483315" lon="1.466284">
        <ele>189.0</ele>
        <time>2013-04-28T11:37:44Z</time>
      </trkpt>
      <trkpt lat="43.483437" lon="1.466306">
        <ele>190.5</ele>
        <time>2013-04-28T11:37:56Z</time>
      </trkpt>
      <trkpt lat="43.483586" lon="1.466310">
        <ele>191.9</ele>
        <time>2013-04-28T11:38:15Z</time>
      </trkpt>
      <trkpt lat="43.483706" lon="1.466398">
        <ele>193.8</ele>
        <time>2013-04-28T11:38:28Z</time>
      </trkpt>
      <trkpt lat="43.483858" lon="1.466503">
        <ele>196.2</ele>
        <time>2013-04-28T11:38:42Z</time>
      </trkpt>
      <trkpt lat="43.483969" lon="1.466584">
        <ele>198.2</ele>
        <time>2013-04-28T11:38:57Z</time>
      </trkpt>
      <trkpt lat="43.484099" lon="1.466665">
        <ele>199.6</ele>
        <time>2013-04-28T11:39:09Z</time>
      </trkpt>
      <trkpt lat="43.484220" lon="1.466751">
        <ele>201.1</ele>
        <time>2013-04-28T11:39:22Z</time>
      </trkpt>
      <trkpt lat="43.484341" lon="1.466822">
        <ele>202.0</ele>
        <time>2013-04-28T11:39:33Z</time>
      </trkpt>
      <trkpt lat="43.484422" lon="1.466921">
        <ele>203.9</ele>
        <time>2013-04-28T11:39:45Z</time>
      </trkpt>
      <trkpt lat="43.484508" lon="1.467067">
        <ele>205.9</ele>
        <time>2013-04-28T11:39:57Z</time>
      </trkpt>
      <trkpt lat="43.484556" lon="1.467263">
        <ele>207.3</ele>
        <time>2013-04-28T11:40:11Z</time>
      </trkpt>
      <trkpt lat="43.484576" lon="1.467444">
        <ele>208.7</ele>
        <time>2013-04-28T11:40:23Z</time>
      </trkpt>
      <trkpt lat="43.484579" lon="1.467588">
        <ele>209.2</ele>
        <time>2013-04-28T11:40:33Z</time>
      </trkpt>
      <trkpt lat="43.484612" lon="1.467748">
        <ele>208.7</ele>
        <time>2013-04-28T11:40:45Z</time>
      </trkpt>
      <trkpt lat="43.484678" lon="1.467893">
        <ele>208.7</ele>
        <time>2013-04-28T11:40:55Z</time>
      </trkpt>
      <trkpt lat="43.484770" lon="1.467978">
        <ele>209.2</ele>
        <time>2013-04-28T11:41:04Z</time>
      </trkpt>
      <trkpt lat="43.484865" lon="1.467963">
        <ele>208.7</ele>
        <time>2013-04-28T11:41:11Z</time>
      </trkpt>
      <trkpt lat="43.484958" lon="1.468001">
        <ele>209.2</ele>
        <time>2013-04-28T11:41:19Z</time>
      </trkpt>
      <trkpt lat="43.485064" lon="1.468038">
        <ele>209.7</ele>
        <time>2013-04-28T11:41:28Z</time>
      </trkpt>
      <trkpt lat="43.485163" lon="1.468094">
        <ele>211.1</ele>
        <time>2013-04-28T11:41:37Z</time>
      </trkpt>
      <trkpt lat="43.485254" lon="1.468155">
        <ele>212.1</ele>
        <time>2013-04-28T11:41:46Z</time>
      </trkpt>
      <trkpt lat="43.485348" lon="1.468214">
        <ele>214.0</ele>
        <time>2013-04-28T11:41:54Z</time>
      </trkpt>
      <trkpt lat="43.485435" lon="1.468279">
        <ele>214.5</ele>
        <time>2013-04-28T11:42:02Z</time>
      </trkpt>
      <trkpt lat="43.485522" lon="1.468340">
        <ele>215.5</ele>
        <time>2013-04-28T11:42:10Z</time>
      </trkpt>
      <trkpt lat="43.485607" lon="1.468416">
        <ele>216.4</ele>
        <time>2013-04-28T11:42:20Z</time>
      </trkpt>
      <trkpt lat="43.485681" lon="1.468517">
        <ele>217.4</ele>
        <time>2013-04-28T11:42:29Z</time>
      </trkpt>
      <trkpt lat="43.485753" lon="1.468612">
        <ele>216.4</ele>
        <time>2013-04-28T11:42:37Z</time>
      </trkpt>
      <trkpt lat="43.485803" lon="1.468659">
        <ele>216.4</ele>
        <time>2013-04-28T11:43:01Z</time>
      </trkpt>
      <trkpt lat="43.485847" lon="1.468784">
        <ele>215.9</ele>
        <time>2013-04-28T11:43:09Z</time>
      </trkpt>
      <trkpt lat="43.485910" lon="1.468889">
        <ele>215.5</ele>
        <time>2013-04-28T11:43:17Z</time>
      </trkpt>
      <trkpt lat="43.485965" lon="1.469008">
        <ele>214.5</ele>
        <time>2013-04-28T11:43:25Z</time>
      </trkpt>
      <trkpt lat="43.486024" lon="1.469115">
        <ele>213.1</ele>
        <time>2013-04-28T11:43:33Z</time>
      </trkpt>
      <trkpt lat="43.486100" lon="1.469239">
        <ele>211.6</ele>
        <time>2013-04-28T11:43:40Z</time>
      </trkpt>
      <trkpt lat="43.486166" lon="1.469361">
        <ele>210.7</ele>
        <time>2013-04-28T11:43:47Z</time>
      </trkpt>
      <trkpt lat="43.486219" lon="1.469464">
        <ele>210.2</ele>
        <time>2013-04-28T11:43:53Z</time>
      </trkpt>
      <trkpt lat="43.486267" lon="1.469572">
        <ele>209.2</ele>
        <time>2013-04-28T11:44:00Z</time>
      </trkpt>
      <trkpt lat="43.486308" lon="1.469683">
        <ele>209.2</ele>
        <time>2013-04-28T11:44:07Z</time>
      </trkpt>
      <trkpt lat="43.486370" lon="1.469788">
        <ele>209.2</ele>
        <time>2013-04-28T11:44:15Z</time>
      </trkpt>
      <trkpt lat="43.486432" lon="1.469901">
        <ele>209.2</ele>
        <time>2013-04-28T11:44:22Z</time>
      </trkpt>
      <trkpt lat="43.486484" lon="1.470017">
        <ele>209.7</ele>
        <time>2013-04-28T11:44:30Z</time>
      </trkpt>
      <trkpt lat="43.486543" lon="1.470117">
        <ele>210.2</ele>
        <time>2013-04-28T11:44:37Z</time>
      </trkpt>
      <trkpt lat="43.486623" lon="1.470215">
        <ele>211.6</ele>
        <time>2013-04-28T11:44:45Z</time>
      </trkpt>
      <trkpt lat="43.486706" lon="1.470303">
        <ele>212.1</ele>
        <time>2013-04-28T11:44:53Z</time>
      </trkpt>
      <trkpt lat="43.486784" lon="1.470378">
        <ele>213.1</ele>
        <time>2013-04-28T11:45:00Z</time>
      </trkpt>
      <trkpt lat="43.486866" lon="1.470462">
        <ele>214.5</ele>
        <time>2013-04-28T11:45:08Z</time>
      </trkpt>
      <trkpt lat="43.486960" lon="1.470541">
        <ele>215.5</ele>
        <time>2013-04-28T11:45:17Z</time>
      </trkpt>
      <trkpt lat="43.487056" lon="1.470630">
        <ele>217.4</ele>
        <time>2013-04-28T11:45:28Z</time>
      </trkpt>
      <trkpt lat="43.487150" lon="1.470698">
        <ele>218.4</ele>
        <time>2013-04-28T11:45:37Z</time>
      </trkpt>
      <trkpt lat="43.487248" lon="1.470788">
        <ele>220.8</ele>
        <time>2013-04-28T11:45:47Z</time>
      </trkpt>
      <trkpt lat="43.487341" lon="1.470878">
        <ele>222.2</ele>
        <time>2013-04-28T11:45:57Z</time>
      </trkpt>
      <trkpt lat="43.487439" lon="1.470952">
        <ele>223.6</ele>
        <time>2013-04-28T11:46:07Z</time>
      </trkpt>
      <trkpt lat="43.487538" lon="1.471012">
        <ele>225.1</ele>
        <time>2013-04-28T11:46:16Z</time>
      </trkpt>
      <trkpt lat="43.487634" lon="1.471089">
        <ele>227.0</ele>
        <time>2013-04-28T11:46:26Z</time>
      </trkpt>
      <trkpt lat="43.487729" lon="1.471165">
        <ele>228.0</ele>
        <time>2013-04-28T11:46:36Z</time>
      </trkpt>
      <trkpt lat="43.487812" lon="1.471272">
        <ele>230.4</ele>
        <time>2013-04-28T11:46:47Z</time>
      </trkpt>
      <trkpt lat="43.487892" lon="1.471381">
        <ele>231.3</ele>
        <time>2013-04-28T11:46:58Z</time>
      </trkpt>
      <trkpt lat="43.487973" lon="1.471508">
        <ele>232.8</ele>
        <time>2013-04-28T11:47:10Z</time>
      </trkpt>
      <trkpt lat="43.488057" lon="1.471613">
        <ele>234.7</ele>
        <time>2013-04-28T11:47:21Z</time>
      </trkpt>
      <trkpt lat="43.488152" lon="1.471709">
        <ele>236.1</ele>
        <time>2013-04-28T11:47:34Z</time>
      </trkpt>
      <trkpt lat="43.488266" lon="1.471815">
        <ele>237.6</ele>
        <time>2013-04-28T11:47:45Z</time>
      </trkpt>
      <trkpt lat="43.488376" lon="1.471911">
        <ele>239.5</ele>
        <time>2013-04-28T11:47:56Z</time>
      </trkpt>
      <trkpt lat="43.488485" lon="1.472012">
        <ele>240.5</ele>
        <time>2013-04-28T11:48:06Z</time>
      </trkpt>
      <trkpt lat="43.488576" lon="1.472104">
        <ele>241.9</ele>
        <time>2013-04-28T11:48:15Z</time>
      </trkpt>
      <trkpt lat="43.488666" lon="1.472202">
        <ele>243.4</ele>
        <time>2013-04-28T11:48:24Z</time>
      </trkpt>
      <trkpt lat="43.488736" lon="1.472308">
        <ele>246.2</ele>
        <time>2013-04-28T11:48:33Z</time>
      </trkpt>
      <trkpt lat="43.488794" lon="1.472424">
        <ele>246.7</ele>
        <time>2013-04-28T11:48:42Z</time>
      </trkpt>
      <trkpt lat="43.488849" lon="1.472546">
        <ele>247.7</ele>
        <time>2013-04-28T11:48:51Z</time>
      </trkpt>
      <trkpt lat="43.488894" lon="1.472651">
        <ele>249.1</ele>
        <time>2013-04-28T11:49:00Z</time>
      </trkpt>
      <trkpt lat="43.488966" lon="1.472744">
        <ele>249.6</ele>
        <time>2013-04-28T11:49:09Z</time>
      </trkpt>
      <trkpt lat="43.489060" lon="1.472820">
        <ele>250.1</ele>
        <time>2013-04-28T11:49:18Z</time>
      </trkpt>
      <trkpt lat="43.489148" lon="1.472865">
        <ele>250.1</ele>
        <time>2013-04-28T11:49:27Z</time>
      </trkpt>
      <trkpt lat="43.489253" lon="1.472920">
        <ele>250.1</ele>
        <time>2013-04-28T11:49:37Z</time>
      </trkpt>
      <trkpt lat="43.489259" lon="1.473073">
        <ele>250.1</ele>
        <time>2013-04-28T11:49:46Z</time>
      </trkpt>
      <trkpt lat="43.489225" lon="1.473189">
        <ele>250.1</ele>
        <time>2013-04-28T11:49:55Z</time>
      </trkpt>
      <trkpt lat="43.489183" lon="1.473310">
        <ele>250.1</ele>
        <time>2013-04-28T11:50:02Z</time>
      </trkpt>
      <trkpt lat="43.489129" lon="1.473409">
        <ele>250.6</ele>
        <time>2013-04-28T11:50:10Z</time>
      </trkpt>
      <trkpt lat="43.489071" lon="1.473462">
        <ele>254.9</ele>
        <time>2013-04-28T12:15:38Z</time>
      </trkpt>
      <trkpt lat="43.489047" lon="1.473540">
        <ele>255.9</ele>
        <time>2013-04-28T12:17:24Z</time>
      </trkpt>
      <trkpt lat="43.489029" lon="1.473686">
        <ele>256.3</ele>
        <time>2013-04-28T12:17:38Z</time>
        <name>Rebigue</name>
      </trkpt>
      <trkpt lat="43.489095" lon="1.473825">
        <ele>255.9</ele>
        <time>2013-04-28T12:17:49Z</time>
      </trkpt>
      <trkpt lat="43.489189" lon="1.473876">
        <ele>254.9</ele>
        <time>2013-04-28T12:17:55Z</time>
      </trkpt>
      <trkpt lat="43.489284" lon="1.473919">
        <ele>253.9</ele>
        <time>2013-04-28T12:18:01Z</time>
      </trkpt>
      <trkpt lat="43.489382" lon="1.473969">
        <ele>252.5</ele>
        <time>2013-04-28T12:18:08Z</time>
      </trkpt>
      <trkpt lat="43.489480" lon="1.473999">
        <ele>251.5</ele>
        <time>2013-04-28T12:18:15Z</time>
      </trkpt>
      <trkpt lat="43.489571" lon="1.474014">
        <ele>250.6</ele>
        <time>2013-04-28T12:18:19Z</time>
      </trkpt>
      <trkpt lat="43.489660" lon="1.474030">
        <ele>248.6</ele>
        <time>2013-04-28T12:18:25Z</time>
      </trkpt>
      <trkpt lat="43.489748" lon="1.474108">
        <ele>241.4</ele>
        <time>2013-04-28T12:18:30Z</time>
      </trkpt>
      <trkpt lat="43.489815" lon="1.474186">
        <ele>245.8</ele>
        <time>2013-04-28T12:18:58Z</time>
      </trkpt>
      <trkpt lat="43.489873" lon="1.474091">
        <ele>242.9</ele>
        <time>2013-04-28T12:19:14Z</time>
      </trkpt>
      <trkpt lat="43.489943" lon="1.473949">
        <ele>242.9</ele>
        <time>2013-04-28T12:19:23Z</time>
      </trkpt>
      <trkpt lat="43.489993" lon="1.473848">
        <ele>241.4</ele>
        <time>2013-04-28T12:19:32Z</time>
      </trkpt>
      <trkpt lat="43.490050" lon="1.473709">
        <ele>240.9</ele>
        <time>2013-04-28T12:19:41Z</time>
      </trkpt>
      <trkpt lat="43.490101" lon="1.473607">
        <ele>239.0</ele>
        <time>2013-04-28T12:19:48Z</time>
      </trkpt>
      <trkpt lat="43.490165" lon="1.473502">
        <ele>240.0</ele>
        <time>2013-04-28T12:19:56Z</time>
      </trkpt>
      <trkpt lat="43.490248" lon="1.473399">
        <ele>238.1</ele>
        <time>2013-04-28T12:20:06Z</time>
      </trkpt>
      <trkpt lat="43.490368" lon="1.473254">
        <ele>236.6</ele>
        <time>2013-04-28T12:20:16Z</time>
      </trkpt>
      <trkpt lat="43.490477" lon="1.473161">
        <ele>235.7</ele>
        <time>2013-04-28T12:20:25Z</time>
      </trkpt>
      <trkpt lat="43.490594" lon="1.473102">
        <ele>235.2</ele>
        <time>2013-04-28T12:20:34Z</time>
      </trkpt>
      <trkpt lat="43.490706" lon="1.473103">
        <ele>235.2</ele>
        <time>2013-04-28T12:20:43Z</time>
      </trkpt>
      <trkpt lat="43.490865" lon="1.473053">
        <ele>234.7</ele>
        <time>2013-04-28T12:20:54Z</time>
      </trkpt>
      <trkpt lat="43.490988" lon="1.473002">
        <ele>235.2</ele>
        <time>2013-04-28T12:21:03Z</time>
      </trkpt>
      <trkpt lat="43.491139" lon="1.472951">
        <ele>236.1</ele>
        <time>2013-04-28T12:21:13Z</time>
      </trkpt>
      <trkpt lat="43.491265" lon="1.472878">
        <ele>237.1</ele>
        <time>2013-04-28T12:21:23Z</time>
      </trkpt>
      <trkpt lat="43.491378" lon="1.472761">
        <ele>237.6</ele>
        <time>2013-04-28T12:21:36Z</time>
      </trkpt>
      <trkpt lat="43.491499" lon="1.472607">
        <ele>236.6</ele>
        <time>2013-04-28T12:21:49Z</time>
      </trkpt>
      <trkpt lat="43.491605" lon="1.472395">
        <ele>235.7</ele>
        <time>2013-04-28T12:22:02Z</time>
      </trkpt>
      <trkpt lat="43.491754" lon="1.472211">
        <ele>235.2</ele>
        <time>2013-04-28T12:22:17Z</time>
      </trkpt>
      <trkpt lat="43.491859" lon="1.472058">
        <ele>234.2</ele>
        <time>2013-04-28T12:22:29Z</time>
      </trkpt>
      <trkpt lat="43.491963" lon="1.471917">
        <ele>233.7</ele>
        <time>2013-04-28T12:22:39Z</time>
      </trkpt>
      <trkpt lat="43.492097" lon="1.471761">
        <ele>233.3</ele>
        <time>2013-04-28T12:22:55Z</time>
      </trkpt>
      <trkpt lat="43.492227" lon="1.471624">
        <ele>231.8</ele>
        <time>2013-04-28T12:23:09Z</time>
      </trkpt>
      <trkpt lat="43.492337" lon="1.471437">
        <ele>231.3</ele>
        <time>2013-04-28T12:23:23Z</time>
      </trkpt>
      <trkpt lat="43.492459" lon="1.471275">
        <ele>229.9</ele>
        <time>2013-04-28T12:23:38Z</time>
      </trkpt>
      <trkpt lat="43.492595" lon="1.471086">
        <ele>229.9</ele>
        <time>2013-04-28T12:23:55Z</time>
      </trkpt>
      <trkpt lat="43.492717" lon="1.470983">
        <ele>228.4</ele>
        <time>2013-04-28T12:24:10Z</time>
      </trkpt>
      <trkpt lat="43.492868" lon="1.470820">
        <ele>228.0</ele>
        <time>2013-04-28T12:24:26Z</time>
      </trkpt>
      <trkpt lat="43.492991" lon="1.470707">
        <ele>228.4</ele>
        <time>2013-04-28T12:24:38Z</time>
      </trkpt>
      <trkpt lat="43.493108" lon="1.470575">
        <ele>228.4</ele>
        <time>2013-04-28T12:24:50Z</time>
      </trkpt>
      <trkpt lat="43.493205" lon="1.470407">
        <ele>228.0</ele>
        <time>2013-04-28T12:25:01Z</time>
      </trkpt>
      <trkpt lat="43.493294" lon="1.470268">
        <ele>226.1</ele>
        <time>2013-04-28T12:25:10Z</time>
      </trkpt>
      <trkpt lat="43.493413" lon="1.470178">
        <ele>225.6</ele>
        <time>2013-04-28T12:25:22Z</time>
      </trkpt>
      <trkpt lat="43.493527" lon="1.470043">
        <ele>225.1</ele>
        <time>2013-04-28T12:25:33Z</time>
      </trkpt>
      <trkpt lat="43.493646" lon="1.469909">
        <ele>225.1</ele>
        <time>2013-04-28T12:25:45Z</time>
      </trkpt>
      <trkpt lat="43.493763" lon="1.469805">
        <ele>224.6</ele>
        <time>2013-04-28T12:25:56Z</time>
      </trkpt>
      <trkpt lat="43.493875" lon="1.469659">
        <ele>224.1</ele>
        <time>2013-04-28T12:26:08Z</time>
      </trkpt>
      <trkpt lat="43.493986" lon="1.469537">
        <ele>223.6</ele>
        <time>2013-04-28T12:26:20Z</time>
      </trkpt>
      <trkpt lat="43.494098" lon="1.469389">
        <ele>223.2</ele>
        <time>2013-04-28T12:26:33Z</time>
      </trkpt>
      <trkpt lat="43.494202" lon="1.469238">
        <ele>222.7</ele>
        <time>2013-04-28T12:26:44Z</time>
      </trkpt>
      <trkpt lat="43.494310" lon="1.469092">
        <ele>222.2</ele>
        <time>2013-04-28T12:26:57Z</time>
      </trkpt>
      <trkpt lat="43.494419" lon="1.468978">
        <ele>221.7</ele>
        <time>2013-04-28T12:27:10Z</time>
      </trkpt>
      <trkpt lat="43.494531" lon="1.468873">
        <ele>221.2</ele>
        <time>2013-04-28T12:27:21Z</time>
      </trkpt>
      <trkpt lat="43.494654" lon="1.468780">
        <ele>220.3</ele>
        <time>2013-04-28T12:27:33Z</time>
      </trkpt>
      <trkpt lat="43.494768" lon="1.468683">
        <ele>219.8</ele>
        <time>2013-04-28T12:27:43Z</time>
      </trkpt>
      <trkpt lat="43.494871" lon="1.468582">
        <ele>221.2</ele>
        <time>2013-04-28T12:27:53Z</time>
      </trkpt>
      <trkpt lat="43.494971" lon="1.468387">
        <ele>218.8</ele>
        <time>2013-04-28T12:28:05Z</time>
      </trkpt>
      <trkpt lat="43.495102" lon="1.468230">
        <ele>217.4</ele>
        <time>2013-04-28T12:28:21Z</time>
      </trkpt>
      <trkpt lat="43.495235" lon="1.468111">
        <ele>216.4</ele>
        <time>2013-04-28T12:28:35Z</time>
      </trkpt>
      <trkpt lat="43.495385" lon="1.467966">
        <ele>215.0</ele>
        <time>2013-04-28T12:28:50Z</time>
      </trkpt>
      <trkpt lat="43.495506" lon="1.467848">
        <ele>214.0</ele>
        <time>2013-04-28T12:29:01Z</time>
      </trkpt>
      <trkpt lat="43.495628" lon="1.467729">
        <ele>213.6</ele>
        <time>2013-04-28T12:29:12Z</time>
      </trkpt>
      <trkpt lat="43.495755" lon="1.467554">
        <ele>213.1</ele>
        <time>2013-04-28T12:29:25Z</time>
      </trkpt>
      <trkpt lat="43.495925" lon="1.467352">
        <ele>212.6</ele>
        <time>2013-04-28T12:29:38Z</time>
      </trkpt>
      <trkpt lat="43.496058" lon="1.467222">
        <ele>212.1</ele>
        <time>2013-04-28T12:29:50Z</time>
      </trkpt>
      <trkpt lat="43.496165" lon="1.467082">
        <ele>210.7</ele>
        <time>2013-04-28T12:30:05Z</time>
      </trkpt>
      <trkpt lat="43.496362" lon="1.466920">
        <ele>209.7</ele>
        <time>2013-04-28T12:30:23Z</time>
      </trkpt>
      <trkpt lat="43.496557" lon="1.466845">
        <ele>208.3</ele>
        <time>2013-04-28T12:30:37Z</time>
      </trkpt>
      <trkpt lat="43.496720" lon="1.466798">
        <ele>207.3</ele>
        <time>2013-04-28T12:30:48Z</time>
      </trkpt>
      <trkpt lat="43.496820" lon="1.466749">
        <ele>204.4</ele>
        <time>2013-04-28T12:30:56Z</time>
      </trkpt>
      <trkpt lat="43.496928" lon="1.466630">
        <ele>204.9</ele>
        <time>2013-04-28T12:31:05Z</time>
      </trkpt>
      <trkpt lat="43.497040" lon="1.466522">
        <ele>204.4</ele>
        <time>2013-04-28T12:31:15Z</time>
      </trkpt>
      <trkpt lat="43.497132" lon="1.466430">
        <ele>203.5</ele>
        <time>2013-04-28T12:31:23Z</time>
      </trkpt>
      <trkpt lat="43.497222" lon="1.466325">
        <ele>203.0</ele>
        <time>2013-04-28T12:31:32Z</time>
      </trkpt>
      <trkpt lat="43.497330" lon="1.466198">
        <ele>202.0</ele>
        <time>2013-04-28T12:31:44Z</time>
      </trkpt>
      <trkpt lat="43.497447" lon="1.466087">
        <ele>201.1</ele>
        <time>2013-04-28T12:31:58Z</time>
      </trkpt>
      <trkpt lat="43.497590" lon="1.465907">
        <ele>199.1</ele>
        <time>2013-04-28T12:32:16Z</time>
      </trkpt>
      <trkpt lat="43.497733" lon="1.465723">
        <ele>198.2</ele>
        <time>2013-04-28T12:32:36Z</time>
      </trkpt>
      <trkpt lat="43.498013" lon="1.465494">
        <ele>197.2</ele>
        <time>2013-04-28T12:33:13Z</time>
      </trkpt>
      <trkpt lat="43.498181" lon="1.465282">
        <ele>196.7</ele>
        <time>2013-04-28T12:33:43Z</time>
      </trkpt>
      <trkpt lat="43.498319" lon="1.465140">
        <ele>196.7</ele>
        <time>2013-04-28T12:34:07Z</time>
      </trkpt>
      <trkpt lat="43.498449" lon="1.465204">
        <ele>196.7</ele>
        <time>2013-04-28T12:34:36Z</time>
        <name>Campistron</name>
      </trkpt>
      <trkpt lat="43.498493" lon="1.465377">
        <ele>197.2</ele>
        <time>2013-04-28T12:34:47Z</time>
      </trkpt>
      <trkpt lat="43.498540" lon="1.465556">
        <ele>197.2</ele>
        <time>2013-04-28T12:34:57Z</time>
      </trkpt>
      <trkpt lat="43.498528" lon="1.465712">
        <ele>197.2</ele>
        <time>2013-04-28T12:35:04Z</time>
      </trkpt>
      <trkpt lat="43.498538" lon="1.465864">
        <ele>197.7</ele>
        <time>2013-04-28T12:35:12Z</time>
      </trkpt>
      <trkpt lat="43.498561" lon="1.466037">
        <ele>199.1</ele>
        <time>2013-04-28T12:35:23Z</time>
      </trkpt>
      <trkpt lat="43.498587" lon="1.466213">
        <ele>199.6</ele>
        <time>2013-04-28T12:35:34Z</time>
      </trkpt>
      <trkpt lat="43.498601" lon="1.466371">
        <ele>200.6</ele>
        <time>2013-04-28T12:35:44Z</time>
      </trkpt>
      <trkpt lat="43.498627" lon="1.466549">
        <ele>202.0</ele>
        <time>2013-04-28T12:35:55Z</time>
      </trkpt>
      <trkpt lat="43.498639" lon="1.466715">
        <ele>203.5</ele>
        <time>2013-04-28T12:36:04Z</time>
      </trkpt>
      <trkpt lat="43.498671" lon="1.466883">
        <ele>204.9</ele>
        <time>2013-04-28T12:36:14Z</time>
      </trkpt>
      <trkpt lat="43.498690" lon="1.467053">
        <ele>205.9</ele>
        <time>2013-04-28T12:36:24Z</time>
      </trkpt>
      <trkpt lat="43.498704" lon="1.467221">
        <ele>207.8</ele>
        <time>2013-04-28T12:36:35Z</time>
      </trkpt>
      <trkpt lat="43.498729" lon="1.467401">
        <ele>209.7</ele>
        <time>2013-04-28T12:36:44Z</time>
      </trkpt>
      <trkpt lat="43.498735" lon="1.467567">
        <ele>210.7</ele>
        <time>2013-04-28T12:36:56Z</time>
      </trkpt>
      <trkpt lat="43.498739" lon="1.467726">
        <ele>212.1</ele>
        <time>2013-04-28T12:37:06Z</time>
      </trkpt>
      <trkpt lat="43.498753" lon="1.467871">
        <ele>213.1</ele>
        <time>2013-04-28T12:37:18Z</time>
      </trkpt>
      <trkpt lat="43.498785" lon="1.468052">
        <ele>214.5</ele>
        <time>2013-04-28T12:37:30Z</time>
      </trkpt>
      <trkpt lat="43.498815" lon="1.468239">
        <ele>215.9</ele>
        <time>2013-04-28T12:37:41Z</time>
      </trkpt>
      <trkpt lat="43.498862" lon="1.468400">
        <ele>217.4</ele>
        <time>2013-04-28T12:37:52Z</time>
      </trkpt>
      <trkpt lat="43.498936" lon="1.468586">
        <ele>218.8</ele>
        <time>2013-04-28T12:38:07Z</time>
      </trkpt>
      <trkpt lat="43.499033" lon="1.468734">
        <ele>220.3</ele>
        <time>2013-04-28T12:38:20Z</time>
      </trkpt>
      <trkpt lat="43.499135" lon="1.468884">
        <ele>221.2</ele>
        <time>2013-04-28T12:38:34Z</time>
      </trkpt>
      <trkpt lat="43.499212" lon="1.469048">
        <ele>222.7</ele>
        <time>2013-04-28T12:38:46Z</time>
      </trkpt>
      <trkpt lat="43.499296" lon="1.469185">
        <ele>221.2</ele>
        <time>2013-04-28T12:38:58Z</time>
      </trkpt>
      <trkpt lat="43.499425" lon="1.469288">
        <ele>223.2</ele>
        <time>2013-04-28T12:39:12Z</time>
      </trkpt>
      <trkpt lat="43.499523" lon="1.469398">
        <ele>223.2</ele>
        <time>2013-04-28T12:39:22Z</time>
      </trkpt>
      <trkpt lat="43.499642" lon="1.469548">
        <ele>223.6</ele>
        <time>2013-04-28T12:39:37Z</time>
      </trkpt>
      <trkpt lat="43.499799" lon="1.469759">
        <ele>225.1</ele>
        <time>2013-04-28T12:39:57Z</time>
      </trkpt>
      <trkpt lat="43.500009" lon="1.469918">
        <ele>225.1</ele>
        <time>2013-04-28T12:40:15Z</time>
      </trkpt>
      <trkpt lat="43.500224" lon="1.470071">
        <ele>226.5</ele>
        <time>2013-04-28T12:40:36Z</time>
      </trkpt>
      <trkpt lat="43.500433" lon="1.470250">
        <ele>228.4</ele>
        <time>2013-04-28T12:40:56Z</time>
      </trkpt>
      <trkpt lat="43.500556" lon="1.470424">
        <ele>229.4</ele>
        <time>2013-04-28T12:41:13Z</time>
      </trkpt>
      <trkpt lat="43.500655" lon="1.470597">
        <ele>229.9</ele>
        <time>2013-04-28T12:41:29Z</time>
      </trkpt>
      <trkpt lat="43.500800" lon="1.470751">
        <ele>230.4</ele>
        <time>2013-04-28T12:41:42Z</time>
      </trkpt>
      <trkpt lat="43.500919" lon="1.470898">
        <ele>230.9</ele>
        <time>2013-04-28T12:41:51Z</time>
      </trkpt>
      <trkpt lat="43.500979" lon="1.471053">
        <ele>232.3</ele>
        <time>2013-04-28T12:42:01Z</time>
      </trkpt>
      <trkpt lat="43.501029" lon="1.471264">
        <ele>233.7</ele>
        <time>2013-04-28T12:42:14Z</time>
      </trkpt>
      <trkpt lat="43.501047" lon="1.471417">
        <ele>235.2</ele>
        <time>2013-04-28T12:42:25Z</time>
      </trkpt>
      <trkpt lat="43.501064" lon="1.471567">
        <ele>237.1</ele>
        <time>2013-04-28T12:42:35Z</time>
      </trkpt>
      <trkpt lat="43.501084" lon="1.471739">
        <ele>238.5</ele>
        <time>2013-04-28T12:42:49Z</time>
      </trkpt>
      <trkpt lat="43.501115" lon="1.471977">
        <ele>241.4</ele>
        <time>2013-04-28T12:43:05Z</time>
      </trkpt>
      <trkpt lat="43.501217" lon="1.471893">
        <ele>241.4</ele>
        <time>2013-04-28T12:43:20Z</time>
      </trkpt>
      <trkpt lat="43.501286" lon="1.471739">
        <ele>241.4</ele>
        <time>2013-04-28T12:43:29Z</time>
      </trkpt>
      <trkpt lat="43.501330" lon="1.471596">
        <ele>241.9</ele>
        <time>2013-04-28T12:43:36Z</time>
      </trkpt>
      <trkpt lat="43.501381" lon="1.471439">
        <ele>241.9</ele>
        <time>2013-04-28T12:43:44Z</time>
      </trkpt>
      <trkpt lat="43.501442" lon="1.471294">
        <ele>242.4</ele>
        <time>2013-04-28T12:43:53Z</time>
      </trkpt>
      <trkpt lat="43.501489" lon="1.471144">
        <ele>241.9</ele>
        <time>2013-04-28T12:44:02Z</time>
      </trkpt>
      <trkpt lat="43.501554" lon="1.471002">
        <ele>241.9</ele>
        <time>2013-04-28T12:44:11Z</time>
      </trkpt>
      <trkpt lat="43.501611" lon="1.470788">
        <ele>240.9</ele>
        <time>2013-04-28T12:44:23Z</time>
      </trkpt>
      <trkpt lat="43.501670" lon="1.470598">
        <ele>240.5</ele>
        <time>2013-04-28T12:44:31Z</time>
      </trkpt>
      <trkpt lat="43.501723" lon="1.470434">
        <ele>240.0</ele>
        <time>2013-04-28T12:44:39Z</time>
      </trkpt>
      <trkpt lat="43.501794" lon="1.470254">
        <ele>239.5</ele>
        <time>2013-04-28T12:44:50Z</time>
      </trkpt>
      <trkpt lat="43.501857" lon="1.470070">
        <ele>238.5</ele>
        <time>2013-04-28T12:44:59Z</time>
      </trkpt>
      <trkpt lat="43.501913" lon="1.469899">
        <ele>238.1</ele>
        <time>2013-04-28T12:45:07Z</time>
      </trkpt>
      <trkpt lat="43.501971" lon="1.469731">
        <ele>237.6</ele>
        <time>2013-04-28T12:45:16Z</time>
      </trkpt>
      <trkpt lat="43.501994" lon="1.469561">
        <ele>236.6</ele>
        <time>2013-04-28T12:45:23Z</time>
      </trkpt>
      <trkpt lat="43.502010" lon="1.469405">
        <ele>236.1</ele>
        <time>2013-04-28T12:45:30Z</time>
      </trkpt>
      <trkpt lat="43.502068" lon="1.469327">
        <ele>233.7</ele>
        <time>2013-04-28T12:45:51Z</time>
      </trkpt>
      <trkpt lat="43.502138" lon="1.469414">
        <ele>235.7</ele>
        <time>2013-04-28T12:46:01Z</time>
      </trkpt>
      <trkpt lat="43.502200" lon="1.469528">
        <ele>231.3</ele>
        <time>2013-04-28T12:46:11Z</time>
      </trkpt>
      <trkpt lat="43.502258" lon="1.469650">
        <ele>240.5</ele>
        <time>2013-04-28T12:46:20Z</time>
      </trkpt>
      <trkpt lat="43.502302" lon="1.469767">
        <ele>235.2</ele>
        <time>2013-04-28T12:46:28Z</time>
      </trkpt>
      <trkpt lat="43.502346" lon="1.469896">
        <ele>234.7</ele>
        <time>2013-04-28T12:46:36Z</time>
      </trkpt>
      <trkpt lat="43.502396" lon="1.470023">
        <ele>235.2</ele>
        <time>2013-04-28T12:46:45Z</time>
      </trkpt>
      <trkpt lat="43.502441" lon="1.470159">
        <ele>233.7</ele>
        <time>2013-04-28T12:46:54Z</time>
      </trkpt>
      <trkpt lat="43.502503" lon="1.470301">
        <ele>233.3</ele>
        <time>2013-04-28T12:47:03Z</time>
      </trkpt>
      <trkpt lat="43.502578" lon="1.470446">
        <ele>232.8</ele>
        <time>2013-04-28T12:47:13Z</time>
      </trkpt>
      <trkpt lat="43.502640" lon="1.470598">
        <ele>233.3</ele>
        <time>2013-04-28T12:47:22Z</time>
      </trkpt>
      <trkpt lat="43.502710" lon="1.470701">
        <ele>233.3</ele>
        <time>2013-04-28T12:47:29Z</time>
      </trkpt>
      <trkpt lat="43.502766" lon="1.470810">
        <ele>233.3</ele>
        <time>2013-04-28T12:47:36Z</time>
      </trkpt>
      <trkpt lat="43.502828" lon="1.470931">
        <ele>233.7</ele>
        <time>2013-04-28T12:47:44Z</time>
      </trkpt>
      <trkpt lat="43.502890" lon="1.471042">
        <ele>234.2</ele>
        <time>2013-04-28T12:47:52Z</time>
      </trkpt>
      <trkpt lat="43.502950" lon="1.471164">
        <ele>235.2</ele>
        <time>2013-04-28T12:48:02Z</time>
      </trkpt>
      <trkpt lat="43.503014" lon="1.471267">
        <ele>235.7</ele>
        <time>2013-04-28T12:48:12Z</time>
      </trkpt>
      <trkpt lat="43.503053" lon="1.471404">
        <ele>236.1</ele>
        <time>2013-04-28T12:48:22Z</time>
      </trkpt>
      <trkpt lat="43.503045" lon="1.471536">
        <ele>236.6</ele>
        <time>2013-04-28T12:48:31Z</time>
      </trkpt>
      <trkpt lat="43.502995" lon="1.471686">
        <ele>237.6</ele>
        <time>2013-04-28T12:48:53Z</time>
      </trkpt>
      <trkpt lat="43.502971" lon="1.471826">
        <ele>238.5</ele>
        <time>2013-04-28T12:49:02Z</time>
      </trkpt>
      <trkpt lat="43.502952" lon="1.471961">
        <ele>239.5</ele>
        <time>2013-04-28T12:49:10Z</time>
      </trkpt>
      <trkpt lat="43.502925" lon="1.472098">
        <ele>240.0</ele>
        <time>2013-04-28T12:49:18Z</time>
      </trkpt>
      <trkpt lat="43.502898" lon="1.472231">
        <ele>240.9</ele>
        <time>2013-04-28T12:49:25Z</time>
      </trkpt>
      <trkpt lat="43.502869" lon="1.472363">
        <ele>241.4</ele>
        <time>2013-04-28T12:49:32Z</time>
      </trkpt>
      <trkpt lat="43.502839" lon="1.472490">
        <ele>241.9</ele>
        <time>2013-04-28T12:49:39Z</time>
      </trkpt>
      <trkpt lat="43.502831" lon="1.472633">
        <ele>242.9</ele>
        <time>2013-04-28T12:49:47Z</time>
      </trkpt>
      <trkpt lat="43.502879" lon="1.472764">
        <ele>244.3</ele>
        <time>2013-04-28T12:49:56Z</time>
      </trkpt>
      <trkpt lat="43.502962" lon="1.472860">
        <ele>245.8</ele>
        <time>2013-04-28T12:50:04Z</time>
      </trkpt>
      <trkpt lat="43.503036" lon="1.472955">
        <ele>246.7</ele>
        <time>2013-04-28T12:50:13Z</time>
      </trkpt>
      <trkpt lat="43.503129" lon="1.473043">
        <ele>247.7</ele>
        <time>2013-04-28T12:50:22Z</time>
      </trkpt>
      <trkpt lat="43.503219" lon="1.473119">
        <ele>249.1</ele>
        <time>2013-04-28T12:50:31Z</time>
      </trkpt>
      <trkpt lat="43.503315" lon="1.473198">
        <ele>249.6</ele>
        <time>2013-04-28T12:50:39Z</time>
      </trkpt>
      <trkpt lat="43.503410" lon="1.473270">
        <ele>249.1</ele>
        <time>2013-04-28T12:50:47Z</time>
      </trkpt>
      <trkpt lat="43.503448" lon="1.473324">
        <ele>248.2</ele>
        <time>2013-04-28T12:51:21Z</time>
      </trkpt>
      <trkpt lat="43.503546" lon="1.473392">
        <ele>248.2</ele>
        <time>2013-04-28T12:51:29Z</time>
      </trkpt>
      <trkpt lat="43.503627" lon="1.473460">
        <ele>247.2</ele>
        <time>2013-04-28T12:51:36Z</time>
      </trkpt>
      <trkpt lat="43.503698" lon="1.473541">
        <ele>246.7</ele>
        <time>2013-04-28T12:51:43Z</time>
      </trkpt>
      <trkpt lat="43.503770" lon="1.473616">
        <ele>246.7</ele>
        <time>2013-04-28T12:51:50Z</time>
      </trkpt>
      <trkpt lat="43.503855" lon="1.473693">
        <ele>246.7</ele>
        <time>2013-04-28T12:51:58Z</time>
      </trkpt>
      <trkpt lat="43.503943" lon="1.473768">
        <ele>246.7</ele>
        <time>2013-04-28T12:52:05Z</time>
      </trkpt>
      <trkpt lat="43.504033" lon="1.473858">
        <ele>247.7</ele>
        <time>2013-04-28T12:52:12Z</time>
      </trkpt>
      <trkpt lat="43.504111" lon="1.473937">
        <ele>247.2</ele>
        <time>2013-04-28T12:52:19Z</time>
      </trkpt>
      <trkpt lat="43.504185" lon="1.474011">
        <ele>248.2</ele>
        <time>2013-04-28T12:52:25Z</time>
      </trkpt>
      <trkpt lat="43.504272" lon="1.474081">
        <ele>248.6</ele>
        <time>2013-04-28T12:52:32Z</time>
      </trkpt>
      <trkpt lat="43.504356" lon="1.474168">
        <ele>250.1</ele>
        <time>2013-04-28T12:52:40Z</time>
      </trkpt>
      <trkpt lat="43.504440" lon="1.474251">
        <ele>251.5</ele>
        <time>2013-04-28T12:52:47Z</time>
      </trkpt>
      <trkpt lat="43.504531" lon="1.474337">
        <ele>253.0</ele>
        <time>2013-04-28T12:52:55Z</time>
      </trkpt>
      <trkpt lat="43.504622" lon="1.474407">
        <ele>254.4</ele>
        <time>2013-04-28T12:53:05Z</time>
      </trkpt>
      <trkpt lat="43.504718" lon="1.474469">
        <ele>255.4</ele>
        <time>2013-04-28T12:53:14Z</time>
      </trkpt>
      <trkpt lat="43.504809" lon="1.474537">
        <ele>255.4</ele>
        <time>2013-04-28T12:53:23Z</time>
      </trkpt>
      <trkpt lat="43.504899" lon="1.474611">
        <ele>255.4</ele>
        <time>2013-04-28T12:53:32Z</time>
        <name>Ancienne Vigne</name>
      </trkpt>
      <trkpt lat="43.504901" lon="1.474686">
        <ele>255.9</ele>
        <time>2013-04-28T12:54:42Z</time>
      </trkpt>
      <trkpt lat="43.504862" lon="1.474832">
        <ele>255.9</ele>
        <time>2013-04-28T12:54:50Z</time>
      </trkpt>
      <trkpt lat="43.504859" lon="1.474986">
        <ele>256.8</ele>
        <time>2013-04-28T12:55:00Z</time>
      </trkpt>
      <trkpt lat="43.504850" lon="1.475126">
        <ele>257.3</ele>
        <time>2013-04-28T12:55:08Z</time>
      </trkpt>
      <trkpt lat="43.504806" lon="1.475285">
        <ele>258.7</ele>
        <time>2013-04-28T12:55:18Z</time>
      </trkpt>
      <trkpt lat="43.504736" lon="1.475424">
        <ele>259.2</ele>
        <time>2013-04-28T12:55:27Z</time>
      </trkpt>
      <trkpt lat="43.504667" lon="1.475556">
        <ele>260.6</ele>
        <time>2013-04-28T12:55:36Z</time>
      </trkpt>
      <trkpt lat="43.504604" lon="1.475682">
        <ele>261.1</ele>
        <time>2013-04-28T12:55:44Z</time>
      </trkpt>
      <trkpt lat="43.504540" lon="1.475803">
        <ele>261.6</ele>
        <time>2013-04-28T12:55:52Z</time>
      </trkpt>
      <trkpt lat="43.504480" lon="1.475941">
        <ele>262.1</ele>
        <time>2013-04-28T12:56:00Z</time>
      </trkpt>
      <trkpt lat="43.504425" lon="1.476069">
        <ele>261.6</ele>
        <time>2013-04-28T12:56:08Z</time>
      </trkpt>
      <trkpt lat="43.504389" lon="1.476200">
        <ele>262.1</ele>
        <time>2013-04-28T12:56:16Z</time>
      </trkpt>
      <trkpt lat="43.504457" lon="1.476322">
        <ele>263.1</ele>
        <time>2013-04-28T12:56:25Z</time>
      </trkpt>
      <trkpt lat="43.504559" lon="1.476367">
        <ele>263.1</ele>
        <time>2013-04-28T12:56:33Z</time>
      </trkpt>
      <trkpt lat="43.504673" lon="1.476401">
        <ele>262.6</ele>
        <time>2013-04-28T12:56:43Z</time>
      </trkpt>
      <trkpt lat="43.504782" lon="1.476447">
        <ele>262.6</ele>
        <time>2013-04-28T12:56:53Z</time>
      </trkpt>
      <trkpt lat="43.504890" lon="1.476474">
        <ele>262.1</ele>
        <time>2013-04-28T12:57:02Z</time>
      </trkpt>
      <trkpt lat="43.505007" lon="1.476516">
        <ele>262.1</ele>
        <time>2013-04-28T12:57:11Z</time>
      </trkpt>
      <trkpt lat="43.505119" lon="1.476550">
        <ele>262.6</ele>
        <time>2013-04-28T12:57:19Z</time>
      </trkpt>
      <trkpt lat="43.505271" lon="1.476594">
        <ele>263.1</ele>
        <time>2013-04-28T12:57:28Z</time>
      </trkpt>
      <trkpt lat="43.505413" lon="1.476624">
        <ele>263.1</ele>
        <time>2013-04-28T12:57:36Z</time>
      </trkpt>
      <trkpt lat="43.505535" lon="1.476659">
        <ele>263.5</ele>
        <time>2013-04-28T12:57:44Z</time>
      </trkpt>
      <trkpt lat="43.505652" lon="1.476702">
        <ele>264.5</ele>
        <time>2013-04-28T12:57:53Z</time>
      </trkpt>
      <trkpt lat="43.505777" lon="1.476738">
        <ele>265.9</ele>
        <time>2013-04-28T12:58:02Z</time>
      </trkpt>
      <trkpt lat="43.505888" lon="1.476772">
        <ele>266.9</ele>
        <time>2013-04-28T12:58:11Z</time>
      </trkpt>
      <trkpt lat="43.506006" lon="1.476803">
        <ele>268.4</ele>
        <time>2013-04-28T12:58:20Z</time>
      </trkpt>
      <trkpt lat="43.506115" lon="1.476825">
        <ele>269.3</ele>
        <time>2013-04-28T12:58:28Z</time>
      </trkpt>
      <trkpt lat="43.506240" lon="1.476858">
        <ele>270.8</ele>
        <time>2013-04-28T12:58:37Z</time>
      </trkpt>
      <trkpt lat="43.506350" lon="1.476886">
        <ele>271.7</ele>
        <time>2013-04-28T12:58:45Z</time>
      </trkpt>
      <trkpt lat="43.506467" lon="1.476897">
        <ele>272.7</ele>
        <time>2013-04-28T12:58:53Z</time>
      </trkpt>
      <trkpt lat="43.506569" lon="1.476925">
        <ele>273.6</ele>
        <time>2013-04-28T12:59:01Z</time>
      </trkpt>
      <trkpt lat="43.506679" lon="1.476944">
        <ele>273.6</ele>
        <time>2013-04-28T12:59:09Z</time>
      </trkpt>
      <trkpt lat="43.506816" lon="1.476983">
        <ele>275.1</ele>
        <time>2013-04-28T12:59:21Z</time>
      </trkpt>
      <trkpt lat="43.506955" lon="1.477016">
        <ele>276.0</ele>
        <time>2013-04-28T12:59:32Z</time>
      </trkpt>
      <trkpt lat="43.507079" lon="1.477037">
        <ele>276.5</ele>
        <time>2013-04-28T12:59:41Z</time>
      </trkpt>
      <trkpt lat="43.507203" lon="1.477105">
        <ele>277.0</ele>
        <time>2013-04-28T12:59:50Z</time>
      </trkpt>
      <trkpt lat="43.507299" lon="1.477230">
        <ele>276.5</ele>
        <time>2013-04-28T12:59:58Z</time>
      </trkpt>
      <trkpt lat="43.507340" lon="1.477366">
        <ele>276.5</ele>
        <time>2013-04-28T13:00:07Z</time>
      </trkpt>
      <trkpt lat="43.507426" lon="1.477456">
        <ele>276.0</ele>
        <time>2013-04-28T13:00:39Z</time>
      </trkpt>
      <trkpt lat="43.507528" lon="1.477530">
        <ele>275.6</ele>
        <time>2013-04-28T13:00:47Z</time>
      </trkpt>
      <trkpt lat="43.507629" lon="1.477618">
        <ele>275.1</ele>
        <time>2013-04-28T13:00:54Z</time>
      </trkpt>
      <trkpt lat="43.507733" lon="1.477711">
        <ele>274.1</ele>
        <time>2013-04-28T13:01:02Z</time>
      </trkpt>
      <trkpt lat="43.507829" lon="1.477812">
        <ele>274.1</ele>
        <time>2013-04-28T13:01:10Z</time>
      </trkpt>
      <trkpt lat="43.507920" lon="1.477906">
        <ele>273.6</ele>
        <time>2013-04-28T13:01:18Z</time>
      </trkpt>
      <trkpt lat="43.508003" lon="1.478019">
        <ele>273.6</ele>
        <time>2013-04-28T13:01:26Z</time>
      </trkpt>
      <trkpt lat="43.508048" lon="1.478169">
        <ele>273.6</ele>
        <time>2013-04-28T13:01:34Z</time>
      </trkpt>
      <trkpt lat="43.508081" lon="1.478294">
        <ele>273.1</ele>
        <time>2013-04-28T13:01:42Z</time>
      </trkpt>
      <trkpt lat="43.508093" lon="1.478434">
        <ele>273.6</ele>
        <time>2013-04-28T13:01:49Z</time>
      </trkpt>
      <trkpt lat="43.508130" lon="1.478566">
        <ele>273.1</ele>
        <time>2013-04-28T13:01:56Z</time>
      </trkpt>
      <trkpt lat="43.508171" lon="1.478682">
        <ele>272.7</ele>
        <time>2013-04-28T13:02:04Z</time>
      </trkpt>
      <trkpt lat="43.508230" lon="1.478787">
        <ele>272.2</ele>
        <time>2013-04-28T13:02:11Z</time>
      </trkpt>
      <trkpt lat="43.508277" lon="1.478899">
        <ele>271.7</ele>
        <time>2013-04-28T13:02:18Z</time>
      </trkpt>
      <trkpt lat="43.508315" lon="1.479023">
        <ele>270.8</ele>
        <time>2013-04-28T13:02:27Z</time>
      </trkpt>
      <trkpt lat="43.508368" lon="1.479153">
        <ele>269.8</ele>
        <time>2013-04-28T13:02:36Z</time>
      </trkpt>
      <trkpt lat="43.508395" lon="1.479286">
        <ele>268.8</ele>
        <time>2013-04-28T13:02:43Z</time>
      </trkpt>
      <trkpt lat="43.508436" lon="1.479411">
        <ele>268.4</ele>
        <time>2013-04-28T13:02:50Z</time>
      </trkpt>
      <trkpt lat="43.508473" lon="1.479528">
        <ele>267.4</ele>
        <time>2013-04-28T13:02:57Z</time>
      </trkpt>
      <trkpt lat="43.508517" lon="1.479651">
        <ele>266.9</ele>
        <time>2013-04-28T13:03:04Z</time>
      </trkpt>
      <trkpt lat="43.508574" lon="1.479772">
        <ele>266.4</ele>
        <time>2013-04-28T13:03:11Z</time>
      </trkpt>
      <trkpt lat="43.508619" lon="1.479906">
        <ele>265.5</ele>
        <time>2013-04-28T13:03:19Z</time>
      </trkpt>
      <trkpt lat="43.508660" lon="1.480023">
        <ele>265.0</ele>
        <time>2013-04-28T13:03:26Z</time>
      </trkpt>
      <trkpt lat="43.508709" lon="1.480143">
        <ele>264.5</ele>
        <time>2013-04-28T13:03:33Z</time>
      </trkpt>
      <trkpt lat="43.508762" lon="1.480261">
        <ele>263.5</ele>
        <time>2013-04-28T13:03:40Z</time>
      </trkpt>
      <trkpt lat="43.508814" lon="1.480377">
        <ele>263.1</ele>
        <time>2013-04-28T13:03:46Z</time>
      </trkpt>
      <trkpt lat="43.508862" lon="1.480467">
        <ele>262.1</ele>
        <time>2013-04-28T13:03:51Z</time>
      </trkpt>
      <trkpt lat="43.508916" lon="1.480558">
        <ele>261.1</ele>
        <time>2013-04-28T13:03:58Z</time>
      </trkpt>
      <trkpt lat="43.508968" lon="1.480674">
        <ele>259.7</ele>
        <time>2013-04-28T13:04:06Z</time>
      </trkpt>
      <trkpt lat="43.509020" lon="1.480779">
        <ele>258.2</ele>
        <time>2013-04-28T13:04:13Z</time>
      </trkpt>
      <trkpt lat="43.509067" lon="1.480895">
        <ele>257.3</ele>
        <time>2013-04-28T13:04:20Z</time>
      </trkpt>
      <trkpt lat="43.509124" lon="1.481011">
        <ele>256.3</ele>
        <time>2013-04-28T13:04:27Z</time>
      </trkpt>
      <trkpt lat="43.509196" lon="1.481110">
        <ele>254.4</ele>
        <time>2013-04-28T13:04:35Z</time>
      </trkpt>
      <trkpt lat="43.509274" lon="1.481207">
        <ele>253.9</ele>
        <time>2013-04-28T13:04:43Z</time>
      </trkpt>
      <trkpt lat="43.509376" lon="1.481290">
        <ele>253.4</ele>
        <time>2013-04-28T13:04:52Z</time>
      </trkpt>
      <trkpt lat="43.509453" lon="1.481359">
        <ele>253.0</ele>
        <time>2013-04-28T13:04:59Z</time>
      </trkpt>
      <trkpt lat="43.509555" lon="1.481440">
        <ele>252.0</ele>
        <time>2013-04-28T13:05:09Z</time>
      </trkpt>
      <trkpt lat="43.509670" lon="1.481517">
        <ele>251.5</ele>
        <time>2013-04-28T13:05:19Z</time>
      </trkpt>
      <trkpt lat="43.509791" lon="1.481575">
        <ele>250.6</ele>
        <time>2013-04-28T13:05:28Z</time>
      </trkpt>
      <trkpt lat="43.509933" lon="1.481632">
        <ele>248.6</ele>
        <time>2013-04-28T13:05:42Z</time>
      </trkpt>
      <trkpt lat="43.510092" lon="1.481728">
        <ele>245.3</ele>
        <time>2013-04-28T13:06:00Z</time>
      </trkpt>
      <trkpt lat="43.510234" lon="1.481825">
        <ele>242.9</ele>
        <time>2013-04-28T13:06:15Z</time>
      </trkpt>
      <trkpt lat="43.510386" lon="1.481886">
        <ele>241.4</ele>
        <time>2013-04-28T13:06:28Z</time>
      </trkpt>
      <trkpt lat="43.510523" lon="1.481939">
        <ele>239.5</ele>
        <time>2013-04-28T13:06:38Z</time>
      </trkpt>
      <trkpt lat="43.510654" lon="1.482005">
        <ele>237.6</ele>
        <time>2013-04-28T13:06:50Z</time>
      </trkpt>
      <trkpt lat="43.510759" lon="1.482088">
        <ele>236.6</ele>
        <time>2013-04-28T13:06:59Z</time>
      </trkpt>
      <trkpt lat="43.510825" lon="1.482177">
        <ele>235.7</ele>
        <time>2013-04-28T13:07:16Z</time>
      </trkpt>
      <trkpt lat="43.510854" lon="1.482317">
        <ele>233.3</ele>
        <time>2013-04-28T13:07:25Z</time>
      </trkpt>
      <trkpt lat="43.510878" lon="1.482464">
        <ele>230.9</ele>
        <time>2013-04-28T13:07:34Z</time>
      </trkpt>
      <trkpt lat="43.510904" lon="1.482594">
        <ele>228.9</ele>
        <time>2013-04-28T13:07:42Z</time>
      </trkpt>
      <trkpt lat="43.510930" lon="1.482735">
        <ele>225.6</ele>
        <time>2013-04-28T13:07:50Z</time>
      </trkpt>
      <trkpt lat="43.510962" lon="1.482875">
        <ele>223.6</ele>
        <time>2013-04-28T13:07:58Z</time>
      </trkpt>
      <trkpt lat="43.510986" lon="1.483014">
        <ele>221.2</ele>
        <time>2013-04-28T13:08:05Z</time>
      </trkpt>
      <trkpt lat="43.511003" lon="1.483154">
        <ele>218.8</ele>
        <time>2013-04-28T13:08:13Z</time>
      </trkpt>
      <trkpt lat="43.511031" lon="1.483312">
        <ele>216.9</ele>
        <time>2013-04-28T13:08:30Z</time>
      </trkpt>
      <trkpt lat="43.511182" lon="1.483308">
        <ele>215.5</ele>
        <time>2013-04-28T13:08:44Z</time>
      </trkpt>
      <trkpt lat="43.511323" lon="1.483340">
        <ele>215.5</ele>
        <time>2013-04-28T13:08:57Z</time>
      </trkpt>
      <trkpt lat="43.511491" lon="1.483383">
        <ele>215.0</ele>
        <time>2013-04-28T13:09:10Z</time>
      </trkpt>
      <trkpt lat="43.511620" lon="1.483495">
        <ele>212.6</ele>
        <time>2013-04-28T13:09:23Z</time>
      </trkpt>
      <trkpt lat="43.511709" lon="1.483600">
        <ele>209.7</ele>
        <time>2013-04-28T13:09:35Z</time>
      </trkpt>
      <trkpt lat="43.511860" lon="1.483676">
        <ele>207.3</ele>
        <time>2013-04-28T13:09:48Z</time>
      </trkpt>
      <trkpt lat="43.511977" lon="1.483754">
        <ele>203.9</ele>
        <time>2013-04-28T13:10:00Z</time>
      </trkpt>
      <trkpt lat="43.512083" lon="1.483825">
        <ele>202.0</ele>
        <time>2013-04-28T13:10:13Z</time>
      </trkpt>
      <trkpt lat="43.512231" lon="1.483931">
        <ele>197.7</ele>
        <time>2013-04-28T13:10:30Z</time>
      </trkpt>
      <trkpt lat="43.512526" lon="1.484062">
        <ele>194.3</ele>
        <time>2013-04-28T13:10:50Z</time>
      </trkpt>
      <trkpt lat="43.512691" lon="1.484187">
        <ele>190.5</ele>
        <time>2013-04-28T13:11:06Z</time>
      </trkpt>
      <trkpt lat="43.512943" lon="1.484244">
        <ele>185.7</ele>
        <time>2013-04-28T13:11:37Z</time>
      </trkpt>
      <trkpt lat="43.513127" lon="1.484289">
        <ele>183.3</ele>
        <time>2013-04-28T13:12:00Z</time>
      </trkpt>
      <trkpt lat="43.513284" lon="1.484335">
        <ele>181.8</ele>
        <time>2013-04-28T13:12:13Z</time>
      </trkpt>
      <trkpt lat="43.513407" lon="1.484341">
        <ele>181.8</ele>
        <time>2013-04-28T13:12:21Z</time>
      </trkpt>
      <trkpt lat="43.513524" lon="1.484325">
        <ele>181.8</ele>
        <time>2013-04-28T13:12:40Z</time>
      </trkpt>
      <trkpt lat="43.513589" lon="1.484394">
        <ele>182.8</ele>
        <time>2013-04-28T13:12:51Z</time>
      </trkpt>
      <trkpt lat="43.513685" lon="1.484499">
        <ele>181.4</ele>
        <time>2013-04-28T13:13:00Z</time>
      </trkpt>
      <trkpt lat="43.513774" lon="1.484573">
        <ele>182.8</ele>
        <time>2013-04-28T13:13:08Z</time>
      </trkpt>
      <trkpt lat="43.513890" lon="1.484654">
        <ele>184.2</ele>
        <time>2013-04-28T13:13:16Z</time>
      </trkpt>
      <trkpt lat="43.513978" lon="1.484697">
        <ele>184.7</ele>
        <time>2013-04-28T13:13:23Z</time>
      </trkpt>
      <trkpt lat="43.514079" lon="1.484775">
        <ele>185.7</ele>
        <time>2013-04-28T13:13:32Z</time>
      </trkpt>
      <trkpt lat="43.514163" lon="1.484840">
        <ele>188.1</ele>
        <time>2013-04-28T13:13:42Z</time>
      </trkpt>
      <trkpt lat="43.514224" lon="1.484958">
        <ele>189.5</ele>
        <time>2013-04-28T13:13:53Z</time>
      </trkpt>
      <trkpt lat="43.514297" lon="1.485065">
        <ele>188.6</ele>
        <time>2013-04-28T13:14:03Z</time>
      </trkpt>
      <trkpt lat="43.514375" lon="1.485196">
        <ele>188.1</ele>
        <time>2013-04-28T13:14:16Z</time>
      </trkpt>
      <trkpt lat="43.514445" lon="1.485338">
        <ele>186.1</ele>
        <time>2013-04-28T13:14:25Z</time>
      </trkpt>
      <trkpt lat="43.514523" lon="1.485436">
        <ele>185.7</ele>
        <time>2013-04-28T13:14:34Z</time>
      </trkpt>
      <trkpt lat="43.514603" lon="1.485532">
        <ele>184.7</ele>
        <time>2013-04-28T13:14:43Z</time>
      </trkpt>
      <trkpt lat="43.514669" lon="1.485646">
        <ele>183.8</ele>
        <time>2013-04-28T13:14:51Z</time>
      </trkpt>
      <trkpt lat="43.514755" lon="1.485767">
        <ele>183.3</ele>
        <time>2013-04-28T13:14:59Z</time>
      </trkpt>
      <trkpt lat="43.514814" lon="1.485901">
        <ele>182.8</ele>
        <time>2013-04-28T13:15:06Z</time>
      </trkpt>
      <trkpt lat="43.514869" lon="1.486020">
        <ele>181.8</ele>
        <time>2013-04-28T13:15:13Z</time>
      </trkpt>
      <trkpt lat="43.514925" lon="1.486146">
        <ele>181.4</ele>
        <time>2013-04-28T13:15:20Z</time>
      </trkpt>
      <trkpt lat="43.514988" lon="1.486265">
        <ele>181.4</ele>
        <time>2013-04-28T13:15:27Z</time>
      </trkpt>
      <trkpt lat="43.515030" lon="1.486417">
        <ele>181.4</ele>
        <time>2013-04-28T13:15:35Z</time>
      </trkpt>
      <trkpt lat="43.515045" lon="1.486577">
        <ele>181.4</ele>
        <time>2013-04-28T13:15:43Z</time>
      </trkpt>
      <trkpt lat="43.515081" lon="1.486713">
        <ele>181.4</ele>
        <time>2013-04-28T13:15:50Z</time>
      </trkpt>
      <trkpt lat="43.515138" lon="1.486843">
        <ele>181.8</ele>
        <time>2013-04-28T13:15:58Z</time>
      </trkpt>
      <trkpt lat="43.515175" lon="1.486968">
        <ele>182.3</ele>
        <time>2013-04-28T13:16:06Z</time>
      </trkpt>
      <trkpt lat="43.515177" lon="1.487133">
        <ele>183.8</ele>
        <time>2013-04-28T13:16:17Z</time>
      </trkpt>
      <trkpt lat="43.515191" lon="1.487309">
        <ele>184.2</ele>
        <time>2013-04-28T13:16:27Z</time>
      </trkpt>
      <trkpt lat="43.515217" lon="1.487543">
        <ele>185.2</ele>
        <time>2013-04-28T13:16:39Z</time>
      </trkpt>
      <trkpt lat="43.515232" lon="1.487717">
        <ele>185.2</ele>
        <time>2013-04-28T13:16:48Z</time>
      </trkpt>
      <trkpt lat="43.515245" lon="1.487879">
        <ele>184.7</ele>
        <time>2013-04-28T13:16:57Z</time>
      </trkpt>
      <trkpt lat="43.515258" lon="1.488036">
        <ele>185.2</ele>
        <time>2013-04-28T13:17:07Z</time>
      </trkpt>
      <trkpt lat="43.515271" lon="1.488195">
        <ele>185.2</ele>
        <time>2013-04-28T13:17:17Z</time>
      </trkpt>
      <trkpt lat="43.515263" lon="1.488345">
        <ele>184.7</ele>
        <time>2013-04-28T13:17:26Z</time>
      </trkpt>
      <trkpt lat="43.515286" lon="1.488569">
        <ele>184.7</ele>
        <time>2013-04-28T13:17:37Z</time>
      </trkpt>
      <trkpt lat="43.515286" lon="1.488743">
        <ele>184.7</ele>
        <time>2013-04-28T13:17:46Z</time>
      </trkpt>
      <trkpt lat="43.515294" lon="1.488908">
        <ele>184.2</ele>
        <time>2013-04-28T13:17:54Z</time>
      </trkpt>
      <trkpt lat="43.515311" lon="1.489082">
        <ele>183.8</ele>
        <time>2013-04-28T13:18:02Z</time>
      </trkpt>
      <trkpt lat="43.515310" lon="1.489235">
        <ele>183.3</ele>
        <time>2013-04-28T13:18:10Z</time>
      </trkpt>
      <trkpt lat="43.515301" lon="1.489400">
        <ele>182.3</ele>
        <time>2013-04-28T13:18:19Z</time>
      </trkpt>
      <trkpt lat="43.515304" lon="1.489558">
        <ele>181.4</ele>
        <time>2013-04-28T13:18:29Z</time>
      </trkpt>
      <trkpt lat="43.515287" lon="1.489719">
        <ele>179.9</ele>
        <time>2013-04-28T13:18:38Z</time>
      </trkpt>
      <trkpt lat="43.515263" lon="1.489891">
        <ele>180.4</ele>
        <time>2013-04-28T13:18:48Z</time>
      </trkpt>
      <trkpt lat="43.515231" lon="1.490042">
        <ele>179.4</ele>
        <time>2013-04-28T13:18:57Z</time>
      </trkpt>
      <trkpt lat="43.515220" lon="1.490197">
        <ele>179.4</ele>
        <time>2013-04-28T13:19:05Z</time>
      </trkpt>
      <trkpt lat="43.515214" lon="1.490349">
        <ele>178.9</ele>
        <time>2013-04-28T13:19:14Z</time>
      </trkpt>
      <trkpt lat="43.515217" lon="1.490510">
        <ele>178.0</ele>
        <time>2013-04-28T13:19:23Z</time>
      </trkpt>
      <trkpt lat="43.515215" lon="1.490721">
        <ele>176.1</ele>
        <time>2013-04-28T13:19:36Z</time>
      </trkpt>
      <trkpt lat="43.515202" lon="1.490943">
        <ele>175.1</ele>
        <time>2013-04-28T13:19:49Z</time>
      </trkpt>
      <trkpt lat="43.515183" lon="1.491160">
        <ele>174.6</ele>
        <time>2013-04-28T13:20:03Z</time>
      </trkpt>
      <trkpt lat="43.515171" lon="1.491470">
        <ele>173.2</ele>
        <time>2013-04-28T13:20:16Z</time>
      </trkpt>
      <trkpt lat="43.515184" lon="1.491710">
        <ele>172.2</ele>
        <time>2013-04-28T13:20:28Z</time>
      </trkpt>
      <trkpt lat="43.515196" lon="1.491889">
        <ele>171.2</ele>
        <time>2013-04-28T13:20:39Z</time>
      </trkpt>
      <trkpt lat="43.515198" lon="1.492097">
        <ele>170.8</ele>
        <time>2013-04-28T13:20:49Z</time>
      </trkpt>
      <trkpt lat="43.515156" lon="1.492277">
        <ele>170.8</ele>
        <time>2013-04-28T13:20:57Z</time>
      </trkpt>
      <trkpt lat="43.515121" lon="1.492418">
        <ele>170.3</ele>
        <time>2013-04-28T13:21:04Z</time>
      </trkpt>
      <trkpt lat="43.515085" lon="1.492577">
        <ele>170.3</ele>
        <time>2013-04-28T13:21:12Z</time>
      </trkpt>
      <trkpt lat="43.515058" lon="1.492723">
        <ele>170.3</ele>
        <time>2013-04-28T13:21:19Z</time>
      </trkpt>
      <trkpt lat="43.515034" lon="1.492864">
        <ele>170.3</ele>
        <time>2013-04-28T13:21:26Z</time>
      </trkpt>
      <trkpt lat="43.515012" lon="1.493042">
        <ele>169.8</ele>
        <time>2013-04-28T13:21:35Z</time>
      </trkpt>
      <trkpt lat="43.515006" lon="1.493210">
        <ele>170.8</ele>
        <time>2013-04-28T13:21:46Z</time>
      </trkpt>
      <trkpt lat="43.514979" lon="1.493383">
        <ele>170.8</ele>
        <time>2013-04-28T13:21:55Z</time>
      </trkpt>
      <trkpt lat="43.514955" lon="1.493563">
        <ele>172.2</ele>
        <time>2013-04-28T13:22:04Z</time>
      </trkpt>
      <trkpt lat="43.514930" lon="1.493735">
        <ele>172.2</ele>
        <time>2013-04-28T13:22:13Z</time>
      </trkpt>
      <trkpt lat="43.514904" lon="1.493910">
        <ele>172.2</ele>
        <time>2013-04-28T13:22:22Z</time>
      </trkpt>
      <trkpt lat="43.514895" lon="1.494054">
        <ele>170.8</ele>
        <time>2013-04-28T13:22:30Z</time>
      </trkpt>
      <trkpt lat="43.514888" lon="1.494196">
        <ele>171.7</ele>
        <time>2013-04-28T13:22:38Z</time>
      </trkpt>
      <trkpt lat="43.514880" lon="1.494344">
        <ele>171.2</ele>
        <time>2013-04-28T13:22:46Z</time>
      </trkpt>
      <trkpt lat="43.514849" lon="1.494488">
        <ele>171.2</ele>
        <time>2013-04-28T13:22:54Z</time>
      </trkpt>
      <trkpt lat="43.514834" lon="1.494632">
        <ele>170.3</ele>
        <time>2013-04-28T13:23:02Z</time>
      </trkpt>
      <trkpt lat="43.514864" lon="1.494793">
        <ele>169.8</ele>
        <time>2013-04-28T13:23:11Z</time>
      </trkpt>
      <trkpt lat="43.514854" lon="1.494944">
        <ele>168.9</ele>
        <time>2013-04-28T13:23:20Z</time>
      </trkpt>
      <trkpt lat="43.514801" lon="1.495102">
        <ele>168.9</ele>
        <time>2013-04-28T13:23:28Z</time>
      </trkpt>
      <trkpt lat="43.514750" lon="1.495255">
        <ele>167.9</ele>
        <time>2013-04-28T13:23:36Z</time>
      </trkpt>
      <trkpt lat="43.514870" lon="1.495407">
        <ele>166.9</ele>
        <time>2013-04-28T13:23:45Z</time>
      </trkpt>
      <trkpt lat="43.514925" lon="1.495550">
        <ele>166.9</ele>
        <time>2013-04-28T13:23:57Z</time>
      </trkpt>
      <trkpt lat="43.514955" lon="1.495711">
        <ele>166.0</ele>
        <time>2013-04-28T13:24:07Z</time>
      </trkpt>
      <trkpt lat="43.514989" lon="1.495901">
        <ele>166.4</ele>
        <time>2013-04-28T13:24:18Z</time>
      </trkpt>
      <trkpt lat="43.515064" lon="1.496097">
        <ele>166.0</ele>
        <time>2013-04-28T13:24:31Z</time>
      </trkpt>
      <trkpt lat="43.515106" lon="1.496327">
        <ele>165.5</ele>
        <time>2013-04-28T13:24:43Z</time>
      </trkpt>
      <trkpt lat="43.515092" lon="1.496476">
        <ele>165.5</ele>
        <time>2013-04-28T13:24:52Z</time>
      </trkpt>
      <trkpt lat="43.515081" lon="1.496638">
        <ele>165.0</ele>
        <time>2013-04-28T13:25:03Z</time>
      </trkpt>
      <trkpt lat="43.515132" lon="1.496859">
        <ele>164.0</ele>
        <time>2013-04-28T13:25:17Z</time>
      </trkpt>
      <trkpt lat="43.515112" lon="1.497071">
        <ele>164.5</ele>
        <time>2013-04-28T13:25:26Z</time>
      </trkpt>
      <trkpt lat="43.515131" lon="1.497278">
        <ele>164.0</ele>
        <time>2013-04-28T13:25:36Z</time>
      </trkpt>
      <trkpt lat="43.515137" lon="1.497488">
        <ele>163.1</ele>
        <time>2013-04-28T13:25:51Z</time>
      </trkpt>
      <trkpt lat="43.515126" lon="1.497679">
        <ele>164.0</ele>
        <time>2013-04-28T13:26:03Z</time>
      </trkpt>
      <trkpt lat="43.515203" lon="1.497666">
        <ele>164.0</ele>
        <time>2013-04-28T13:26:24Z</time>
      </trkpt>
      <trkpt lat="43.515335" lon="1.497561">
        <ele>164.5</ele>
        <time>2013-04-28T13:26:37Z</time>
      </trkpt>
      <trkpt lat="43.515548" lon="1.497454">
        <ele>165.0</ele>
        <time>2013-04-28T13:26:53Z</time>
      </trkpt>
      <trkpt lat="43.515691" lon="1.497360">
        <ele>165.5</ele>
        <time>2013-04-28T13:27:04Z</time>
      </trkpt>
      <trkpt lat="43.515839" lon="1.497266">
        <ele>165.5</ele>
        <time>2013-04-28T13:27:13Z</time>
      </trkpt>
      <trkpt lat="43.515939" lon="1.497210">
        <ele>165.0</ele>
        <time>2013-04-28T13:27:20Z</time>
      </trkpt>
      <trkpt lat="43.516034" lon="1.497203">
        <ele>165.0</ele>
        <time>2013-04-28T13:27:27Z</time>
      </trkpt>
      <trkpt lat="43.516126" lon="1.497151">
        <ele>165.5</ele>
        <time>2013-04-28T13:27:35Z</time>
      </trkpt>
      <trkpt lat="43.516253" lon="1.497080">
        <ele>166.0</ele>
        <time>2013-04-28T13:27:44Z</time>
      </trkpt>
      <trkpt lat="43.516404" lon="1.496991">
        <ele>166.9</ele>
        <time>2013-04-28T13:28:04Z</time>
      </trkpt>
      <trkpt lat="43.516484" lon="1.496883">
        <ele>169.3</ele>
        <time>2013-04-28T13:28:19Z</time>
      </trkpt>
      <trkpt lat="43.516618" lon="1.497017">
        <ele>168.9</ele>
        <time>2013-04-28T13:28:48Z</time>
      </trkpt>
      <trkpt lat="43.516701" lon="1.497121">
        <ele>168.4</ele>
        <time>2013-04-28T13:29:02Z</time>
      </trkpt>
      <trkpt lat="43.516803" lon="1.497217">
        <ele>167.9</ele>
        <time>2013-04-28T13:29:13Z</time>
      </trkpt>
      <trkpt lat="43.516866" lon="1.497328">
        <ele>168.9</ele>
        <time>2013-04-28T13:29:27Z</time>
      </trkpt>
    </trkseg>
  </trk>
</gpx>

